<?xml version="1.0" encoding="UTF-8" standalone="no" ?>
<gpx xmlns="http://www.topografix.com/GPX/1/1" xmlns:xsi="http://www.w3.org/2001/XMLSchema-instance" xsi:schemaLocation="http://www.topografix.com/GPX/1/1 http://www.topografix.com/GPX/1/1/gpx.xsd" version="1.1" creator="VisuGPX - https://www.visugpx.com">
  <metadata>
    <name>Charmant Som par la Pinea</name>
    <desc><![CDATA[Montee à Charmant Som en partant du col de Porte et en passant par la crete sous la Pinea]]></desc>
  </metadata>
  <trk>
    <name><![CDATA[2018-01-13 12:00]]></name>
    <desc><![CDATA[<p>Heure de départ: 01/13/2018 12:00<br/>Heure d'arrivée: 01/13/2018 15:27<br/>Distance: 13,3 km (03:27)<br/>Temps déplacement: 02:10<br/>Vitesse moyenne: 3,86 km/h<br/>Vitesse moyenne mouv.: 6,13 km/h<br/>Vitesse Max.: 29,98 km/h<br/>Altitude minimale: 1267 m<br/>Altitude maximale: 1819 m<br/>Vitesse de montée: 452,1 m/h<br/>Vitesse de descente: -491,5 m/h<br/>Gain d'altitude: 894 m<br/>Perte d'altitude: -724 m<br/>Temps de montée: 01:58<br/>Temps de descente: 01:28<br/></p><hr align="center" width="480" style="height: 2px; width: 517px"/>]]></desc>
    <trkseg>
      <trkpt lat="45.29429" lon="5.76308">
        <ele>1267.48</ele>
        <time>2018-01-13T11:00:26Z</time>
      </trkpt>
      <trkpt lat="45.29431" lon="5.76294">
        <ele>1267.58</ele>
        <time>2018-01-13T11:00:49Z</time>
      </trkpt>
      <trkpt lat="45.29435" lon="5.76282">
        <ele>1268.48</ele>
        <time>2018-01-13T11:00:55Z</time>
      </trkpt>
      <trkpt lat="45.29439" lon="5.7627">
        <ele>1271.18</ele>
        <time>2018-01-13T11:01:23Z</time>
      </trkpt>
      <trkpt lat="45.29445" lon="5.76261">
        <ele>1272.38</ele>
        <time>2018-01-13T11:01:32Z</time>
      </trkpt>
      <trkpt lat="45.29447" lon="5.76247">
        <ele>1275.08</ele>
        <time>2018-01-13T11:01:42Z</time>
      </trkpt>
      <trkpt lat="45.29451" lon="5.76234">
        <ele>1276.08</ele>
        <time>2018-01-13T11:01:47Z</time>
      </trkpt>
      <trkpt lat="45.29458" lon="5.76224">
        <ele>1277.08</ele>
        <time>2018-01-13T11:01:52Z</time>
      </trkpt>
      <trkpt lat="45.2946" lon="5.76211">
        <ele>1277.48</ele>
        <time>2018-01-13T11:01:56Z</time>
      </trkpt>
      <trkpt lat="45.29468" lon="5.76205">
        <ele>1289.98</ele>
        <time>2018-01-13T11:02:08Z</time>
      </trkpt>
      <trkpt lat="45.29472" lon="5.76193">
        <ele>1292.98</ele>
        <time>2018-01-13T11:02:11Z</time>
      </trkpt>
      <trkpt lat="45.29473" lon="5.7618">
        <ele>1294.68</ele>
        <time>2018-01-13T11:02:15Z</time>
      </trkpt>
      <trkpt lat="45.2947" lon="5.76167">
        <ele>1295.88</ele>
        <time>2018-01-13T11:02:25Z</time>
      </trkpt>
      <trkpt lat="45.29471" lon="5.76154">
        <ele>1294.08</ele>
        <time>2018-01-13T11:02:32Z</time>
      </trkpt>
      <trkpt lat="45.29473" lon="5.7614">
        <ele>1297.48</ele>
        <time>2018-01-13T11:02:54Z</time>
      </trkpt>
      <trkpt lat="45.29469" lon="5.76128">
        <ele>1298.18</ele>
        <time>2018-01-13T11:03:03Z</time>
      </trkpt>
      <trkpt lat="45.29473" lon="5.76111">
        <ele>1298.78</ele>
        <time>2018-01-13T11:03:12Z</time>
      </trkpt>
      <trkpt lat="45.29473" lon="5.76097">
        <ele>1297.58</ele>
        <time>2018-01-13T11:03:18Z</time>
      </trkpt>
      <trkpt lat="45.29475" lon="5.76084">
        <ele>1296.88</ele>
        <time>2018-01-13T11:03:25Z</time>
      </trkpt>
      <trkpt lat="45.29473" lon="5.7607">
        <ele>1296.38</ele>
        <time>2018-01-13T11:03:35Z</time>
      </trkpt>
      <trkpt lat="45.29473" lon="5.76056">
        <ele>1294.48</ele>
        <time>2018-01-13T11:03:43Z</time>
      </trkpt>
      <trkpt lat="45.29479" lon="5.76045">
        <ele>1293.78</ele>
        <time>2018-01-13T11:03:50Z</time>
      </trkpt>
      <trkpt lat="45.29483" lon="5.76033">
        <ele>1294.08</ele>
        <time>2018-01-13T11:03:56Z</time>
      </trkpt>
      <trkpt lat="45.29488" lon="5.76021">
        <ele>1293.08</ele>
        <time>2018-01-13T11:04:04Z</time>
      </trkpt>
      <trkpt lat="45.29493" lon="5.7601">
        <ele>1292.38</ele>
        <time>2018-01-13T11:04:09Z</time>
      </trkpt>
      <trkpt lat="45.29499" lon="5.75998">
        <ele>1292.78</ele>
        <time>2018-01-13T11:04:19Z</time>
      </trkpt>
      <trkpt lat="45.29498" lon="5.75975">
        <ele>1291.88</ele>
        <time>2018-01-13T11:04:46Z</time>
      </trkpt>
      <trkpt lat="45.29502" lon="5.75961">
        <ele>1293.68</ele>
        <time>2018-01-13T11:04:55Z</time>
      </trkpt>
      <trkpt lat="45.29508" lon="5.75949">
        <ele>1294.08</ele>
        <time>2018-01-13T11:05:05Z</time>
      </trkpt>
      <trkpt lat="45.29516" lon="5.75943">
        <ele>1294.68</ele>
        <time>2018-01-13T11:05:11Z</time>
      </trkpt>
      <trkpt lat="45.29525" lon="5.75933">
        <ele>1295.18</ele>
        <time>2018-01-13T11:05:16Z</time>
      </trkpt>
      <trkpt lat="45.29532" lon="5.75923">
        <ele>1294.78</ele>
        <time>2018-01-13T11:05:22Z</time>
      </trkpt>
      <trkpt lat="45.29539" lon="5.75913">
        <ele>1294.78</ele>
        <time>2018-01-13T11:05:29Z</time>
      </trkpt>
      <trkpt lat="45.29546" lon="5.75904">
        <ele>1295.28</ele>
        <time>2018-01-13T11:05:36Z</time>
      </trkpt>
      <trkpt lat="45.29553" lon="5.75895">
        <ele>1296.08</ele>
        <time>2018-01-13T11:05:43Z</time>
      </trkpt>
      <trkpt lat="45.2956" lon="5.75884">
        <ele>1297.38</ele>
        <time>2018-01-13T11:05:49Z</time>
      </trkpt>
      <trkpt lat="45.29566" lon="5.75872">
        <ele>1297.98</ele>
        <time>2018-01-13T11:05:53Z</time>
      </trkpt>
      <trkpt lat="45.29571" lon="5.75861">
        <ele>1298.18</ele>
        <time>2018-01-13T11:05:58Z</time>
      </trkpt>
      <trkpt lat="45.29581" lon="5.75859">
        <ele>1299.38</ele>
        <time>2018-01-13T11:06:04Z</time>
      </trkpt>
      <trkpt lat="45.29587" lon="5.75848">
        <ele>1299.68</ele>
        <time>2018-01-13T11:06:13Z</time>
      </trkpt>
      <trkpt lat="45.29578" lon="5.75844">
        <ele>1294.88</ele>
        <time>2018-01-13T11:06:21Z</time>
      </trkpt>
      <trkpt lat="45.29574" lon="5.75858">
        <ele>1290.68</ele>
        <time>2018-01-13T11:06:41Z</time>
      </trkpt>
      <trkpt lat="45.29576" lon="5.75846">
        <ele>1291.18</ele>
        <time>2018-01-13T11:07:11Z</time>
      </trkpt>
      <trkpt lat="45.29578" lon="5.75833">
        <ele>1294.08</ele>
        <time>2018-01-13T11:07:17Z</time>
      </trkpt>
      <trkpt lat="45.29576" lon="5.75819">
        <ele>1296.68</ele>
        <time>2018-01-13T11:07:25Z</time>
      </trkpt>
      <trkpt lat="45.29572" lon="5.75805">
        <ele>1297.88</ele>
        <time>2018-01-13T11:07:31Z</time>
      </trkpt>
      <trkpt lat="45.29571" lon="5.7579">
        <ele>1298.88</ele>
        <time>2018-01-13T11:07:36Z</time>
      </trkpt>
      <trkpt lat="45.29567" lon="5.75777">
        <ele>1299.98</ele>
        <time>2018-01-13T11:07:44Z</time>
      </trkpt>
      <trkpt lat="45.29562" lon="5.75766">
        <ele>1299.78</ele>
        <time>2018-01-13T11:07:48Z</time>
      </trkpt>
      <trkpt lat="45.29562" lon="5.75752">
        <ele>1299.08</ele>
        <time>2018-01-13T11:07:52Z</time>
      </trkpt>
      <trkpt lat="45.29559" lon="5.75739">
        <ele>1298.08</ele>
        <time>2018-01-13T11:07:57Z</time>
      </trkpt>
      <trkpt lat="45.29551" lon="5.75726">
        <ele>1296.58</ele>
        <time>2018-01-13T11:08:04Z</time>
      </trkpt>
      <trkpt lat="45.29541" lon="5.75731">
        <ele>1295.28</ele>
        <time>2018-01-13T11:08:05Z</time>
      </trkpt>
      <trkpt lat="45.29533" lon="5.75724">
        <ele>1291.28</ele>
        <time>2018-01-13T11:08:11Z</time>
      </trkpt>
      <trkpt lat="45.29527" lon="5.75714">
        <ele>1288.68</ele>
        <time>2018-01-13T11:08:18Z</time>
      </trkpt>
      <trkpt lat="45.29527" lon="5.75701">
        <ele>1288.18</ele>
        <time>2018-01-13T11:08:24Z</time>
      </trkpt>
      <trkpt lat="45.29523" lon="5.75688">
        <ele>1289.38</ele>
        <time>2018-01-13T11:08:30Z</time>
      </trkpt>
      <trkpt lat="45.29518" lon="5.75678">
        <ele>1291.78</ele>
        <time>2018-01-13T11:08:36Z</time>
      </trkpt>
      <trkpt lat="45.29514" lon="5.75664">
        <ele>1295.18</ele>
        <time>2018-01-13T11:08:43Z</time>
      </trkpt>
      <trkpt lat="45.29509" lon="5.75653">
        <ele>1296.88</ele>
        <time>2018-01-13T11:08:50Z</time>
      </trkpt>
      <trkpt lat="45.295" lon="5.75647">
        <ele>1298.78</ele>
        <time>2018-01-13T11:08:57Z</time>
      </trkpt>
      <trkpt lat="45.29494" lon="5.75637">
        <ele>1306.38</ele>
        <time>2018-01-13T11:09:19Z</time>
      </trkpt>
      <trkpt lat="45.29488" lon="5.75627">
        <ele>1306.78</ele>
        <time>2018-01-13T11:09:27Z</time>
      </trkpt>
      <trkpt lat="45.29483" lon="5.75617">
        <ele>1306.58</ele>
        <time>2018-01-13T11:09:33Z</time>
      </trkpt>
      <trkpt lat="45.29483" lon="5.75604">
        <ele>1305.48</ele>
        <time>2018-01-13T11:09:39Z</time>
      </trkpt>
      <trkpt lat="45.29478" lon="5.75592">
        <ele>1304.48</ele>
        <time>2018-01-13T11:09:59Z</time>
      </trkpt>
      <trkpt lat="45.2947" lon="5.75586">
        <ele>1304.68</ele>
        <time>2018-01-13T11:10:06Z</time>
      </trkpt>
      <trkpt lat="45.29468" lon="5.75572">
        <ele>1305.38</ele>
        <time>2018-01-13T11:10:19Z</time>
      </trkpt>
      <trkpt lat="45.29467" lon="5.75558">
        <ele>1306.88</ele>
        <time>2018-01-13T11:10:27Z</time>
      </trkpt>
      <trkpt lat="45.29461" lon="5.75548">
        <ele>1307.08</ele>
        <time>2018-01-13T11:10:35Z</time>
      </trkpt>
      <trkpt lat="45.29452" lon="5.75545">
        <ele>1307.18</ele>
        <time>2018-01-13T11:10:44Z</time>
      </trkpt>
      <trkpt lat="45.29447" lon="5.75533">
        <ele>1310.58</ele>
        <time>2018-01-13T11:10:59Z</time>
      </trkpt>
      <trkpt lat="45.29441" lon="5.75522">
        <ele>1313.98</ele>
        <time>2018-01-13T11:11:10Z</time>
      </trkpt>
      <trkpt lat="45.29434" lon="5.75514">
        <ele>1314.98</ele>
        <time>2018-01-13T11:11:14Z</time>
      </trkpt>
      <trkpt lat="45.29443" lon="5.75494">
        <ele>1315.18</ele>
        <time>2018-01-13T11:11:18Z</time>
      </trkpt>
      <trkpt lat="45.29452" lon="5.75488">
        <ele>1315.18</ele>
        <time>2018-01-13T11:11:19Z</time>
      </trkpt>
      <trkpt lat="45.29467" lon="5.75481">
        <ele>1315.28</ele>
        <time>2018-01-13T11:11:20Z</time>
      </trkpt>
      <trkpt lat="45.2948" lon="5.75475">
        <ele>1315.18</ele>
        <time>2018-01-13T11:11:21Z</time>
      </trkpt>
      <trkpt lat="45.29496" lon="5.75467">
        <ele>1314.98</ele>
        <time>2018-01-13T11:11:22Z</time>
      </trkpt>
      <trkpt lat="45.29504" lon="5.75453">
        <ele>1314.88</ele>
        <time>2018-01-13T11:11:23Z</time>
      </trkpt>
      <trkpt lat="45.29495" lon="5.75446">
        <ele>1312.88</ele>
        <time>2018-01-13T11:11:26Z</time>
      </trkpt>
      <trkpt lat="45.29478" lon="5.75453">
        <ele>1311.88</ele>
        <time>2018-01-13T11:11:28Z</time>
      </trkpt>
      <trkpt lat="45.2946" lon="5.7546">
        <ele>1311.98</ele>
        <time>2018-01-13T11:11:32Z</time>
      </trkpt>
      <trkpt lat="45.29449" lon="5.7546">
        <ele>1311.88</ele>
        <time>2018-01-13T11:11:33Z</time>
      </trkpt>
      <trkpt lat="45.29429" lon="5.75467">
        <ele>1312.08</ele>
        <time>2018-01-13T11:11:35Z</time>
      </trkpt>
      <trkpt lat="45.29418" lon="5.75482">
        <ele>1312.48</ele>
        <time>2018-01-13T11:11:36Z</time>
      </trkpt>
      <trkpt lat="45.29401" lon="5.75496">
        <ele>1313.08</ele>
        <time>2018-01-13T11:11:38Z</time>
      </trkpt>
      <trkpt lat="45.29393" lon="5.75491">
        <ele>1322.88</ele>
        <time>2018-01-13T11:12:01Z</time>
      </trkpt>
      <trkpt lat="45.29397" lon="5.75477">
        <ele>1325.58</ele>
        <time>2018-01-13T11:12:07Z</time>
      </trkpt>
      <trkpt lat="45.29404" lon="5.75453">
        <ele>1326.28</ele>
        <time>2018-01-13T11:12:09Z</time>
      </trkpt>
      <trkpt lat="45.29408" lon="5.75436">
        <ele>1324.58</ele>
        <time>2018-01-13T11:12:10Z</time>
      </trkpt>
      <trkpt lat="45.29416" lon="5.75428">
        <ele>1324.28</ele>
        <time>2018-01-13T11:12:11Z</time>
      </trkpt>
      <trkpt lat="45.29423" lon="5.7544">
        <ele>1326.18</ele>
        <time>2018-01-13T11:12:14Z</time>
      </trkpt>
      <trkpt lat="45.29413" lon="5.75445">
        <ele>1327.38</ele>
        <time>2018-01-13T11:12:17Z</time>
      </trkpt>
      <trkpt lat="45.29402" lon="5.75448">
        <ele>1328.48</ele>
        <time>2018-01-13T11:12:19Z</time>
      </trkpt>
      <trkpt lat="45.29393" lon="5.75449">
        <ele>1331.68</ele>
        <time>2018-01-13T11:12:21Z</time>
      </trkpt>
      <trkpt lat="45.29385" lon="5.75441">
        <ele>1336.58</ele>
        <time>2018-01-13T11:12:27Z</time>
      </trkpt>
      <trkpt lat="45.29377" lon="5.75449">
        <ele>1339.38</ele>
        <time>2018-01-13T11:12:32Z</time>
      </trkpt>
      <trkpt lat="45.29376" lon="5.75433">
        <ele>1340.68</ele>
        <time>2018-01-13T11:12:38Z</time>
      </trkpt>
      <trkpt lat="45.29367" lon="5.75439">
        <ele>1336.28</ele>
        <time>2018-01-13T11:12:46Z</time>
      </trkpt>
      <trkpt lat="45.29357" lon="5.7544">
        <ele>1334.68</ele>
        <time>2018-01-13T11:12:58Z</time>
      </trkpt>
      <trkpt lat="45.29347" lon="5.75438">
        <ele>1334.68</ele>
        <time>2018-01-13T11:13:04Z</time>
      </trkpt>
      <trkpt lat="45.29336" lon="5.75438">
        <ele>1335.88</ele>
        <time>2018-01-13T11:13:11Z</time>
      </trkpt>
      <trkpt lat="45.29326" lon="5.75434">
        <ele>1336.48</ele>
        <time>2018-01-13T11:13:18Z</time>
      </trkpt>
      <trkpt lat="45.29326" lon="5.75416">
        <ele>1334.28</ele>
        <time>2018-01-13T11:13:21Z</time>
      </trkpt>
      <trkpt lat="45.29326" lon="5.75403">
        <ele>1330.28</ele>
        <time>2018-01-13T11:13:23Z</time>
      </trkpt>
      <trkpt lat="45.29317" lon="5.75401">
        <ele>1321.88</ele>
        <time>2018-01-13T11:13:35Z</time>
      </trkpt>
      <trkpt lat="45.29308" lon="5.75402">
        <ele>1318.48</ele>
        <time>2018-01-13T11:13:44Z</time>
      </trkpt>
      <trkpt lat="45.293" lon="5.75397">
        <ele>1319.58</ele>
        <time>2018-01-13T11:13:57Z</time>
      </trkpt>
      <trkpt lat="45.29306" lon="5.75387">
        <ele>1320.38</ele>
        <time>2018-01-13T11:13:59Z</time>
      </trkpt>
      <trkpt lat="45.29307" lon="5.75375">
        <ele>1329.78</ele>
        <time>2018-01-13T11:14:07Z</time>
      </trkpt>
      <trkpt lat="45.29305" lon="5.75361">
        <ele>1335.58</ele>
        <time>2018-01-13T11:14:24Z</time>
      </trkpt>
      <trkpt lat="45.29302" lon="5.75348">
        <ele>1336.58</ele>
        <time>2018-01-13T11:14:30Z</time>
      </trkpt>
      <trkpt lat="45.29293" lon="5.75344">
        <ele>1338.18</ele>
        <time>2018-01-13T11:14:39Z</time>
      </trkpt>
      <trkpt lat="45.29284" lon="5.75337">
        <ele>1340.88</ele>
        <time>2018-01-13T11:14:48Z</time>
      </trkpt>
      <trkpt lat="45.29276" lon="5.7533">
        <ele>1341.28</ele>
        <time>2018-01-13T11:14:55Z</time>
      </trkpt>
      <trkpt lat="45.29265" lon="5.7533">
        <ele>1344.78</ele>
        <time>2018-01-13T11:15:00Z</time>
      </trkpt>
      <trkpt lat="45.29256" lon="5.75323">
        <ele>1346.98</ele>
        <time>2018-01-13T11:15:08Z</time>
      </trkpt>
      <trkpt lat="45.29247" lon="5.75325">
        <ele>1353.18</ele>
        <time>2018-01-13T11:15:17Z</time>
      </trkpt>
      <trkpt lat="45.29241" lon="5.75315">
        <ele>1359.38</ele>
        <time>2018-01-13T11:15:28Z</time>
      </trkpt>
      <trkpt lat="45.29232" lon="5.75311">
        <ele>1361.98</ele>
        <time>2018-01-13T11:15:39Z</time>
      </trkpt>
      <trkpt lat="45.29222" lon="5.75309">
        <ele>1364.68</ele>
        <time>2018-01-13T11:15:51Z</time>
      </trkpt>
      <trkpt lat="45.29212" lon="5.75308">
        <ele>1365.28</ele>
        <time>2018-01-13T11:16:02Z</time>
      </trkpt>
      <trkpt lat="45.29205" lon="5.75299">
        <ele>1367.48</ele>
        <time>2018-01-13T11:16:16Z</time>
      </trkpt>
      <trkpt lat="45.29196" lon="5.75294">
        <ele>1368.98</ele>
        <time>2018-01-13T11:16:23Z</time>
      </trkpt>
      <trkpt lat="45.29188" lon="5.75286">
        <ele>1369.08</ele>
        <time>2018-01-13T11:16:31Z</time>
      </trkpt>
      <trkpt lat="45.29179" lon="5.75284">
        <ele>1372.28</ele>
        <time>2018-01-13T11:16:46Z</time>
      </trkpt>
      <trkpt lat="45.29172" lon="5.75275">
        <ele>1375.18</ele>
        <time>2018-01-13T11:17:02Z</time>
      </trkpt>
      <trkpt lat="45.29165" lon="5.75265">
        <ele>1378.08</ele>
        <time>2018-01-13T11:17:16Z</time>
      </trkpt>
      <trkpt lat="45.29158" lon="5.75257">
        <ele>1379.68</ele>
        <time>2018-01-13T11:17:25Z</time>
      </trkpt>
      <trkpt lat="45.29149" lon="5.7525">
        <ele>1380.68</ele>
        <time>2018-01-13T11:17:35Z</time>
      </trkpt>
      <trkpt lat="45.29146" lon="5.75238">
        <ele>1383.18</ele>
        <time>2018-01-13T11:17:51Z</time>
      </trkpt>
      <trkpt lat="45.29136" lon="5.75228">
        <ele>1386.58</ele>
        <time>2018-01-13T11:18:16Z</time>
      </trkpt>
      <trkpt lat="45.29127" lon="5.75227">
        <ele>1389.48</ele>
        <time>2018-01-13T11:18:32Z</time>
      </trkpt>
      <trkpt lat="45.29118" lon="5.75233">
        <ele>1390.48</ele>
        <time>2018-01-13T11:18:37Z</time>
      </trkpt>
      <trkpt lat="45.29108" lon="5.75231">
        <ele>1390.08</ele>
        <time>2018-01-13T11:18:46Z</time>
      </trkpt>
      <trkpt lat="45.29098" lon="5.75229">
        <ele>1391.38</ele>
        <time>2018-01-13T11:18:53Z</time>
      </trkpt>
      <trkpt lat="45.29092" lon="5.7524">
        <ele>1393.88</ele>
        <time>2018-01-13T11:19:08Z</time>
      </trkpt>
      <trkpt lat="45.29084" lon="5.75236">
        <ele>1398.88</ele>
        <time>2018-01-13T11:19:37Z</time>
      </trkpt>
      <trkpt lat="45.29075" lon="5.75231">
        <ele>1398.08</ele>
        <time>2018-01-13T11:19:46Z</time>
      </trkpt>
      <trkpt lat="45.29066" lon="5.75226">
        <ele>1402.38</ele>
        <time>2018-01-13T11:19:58Z</time>
      </trkpt>
      <trkpt lat="45.29058" lon="5.75218">
        <ele>1404.88</ele>
        <time>2018-01-13T11:20:07Z</time>
      </trkpt>
      <trkpt lat="45.2905" lon="5.75226">
        <ele>1406.68</ele>
        <time>2018-01-13T11:20:12Z</time>
      </trkpt>
      <trkpt lat="45.29041" lon="5.75232">
        <ele>1409.88</ele>
        <time>2018-01-13T11:20:24Z</time>
      </trkpt>
      <trkpt lat="45.29033" lon="5.75237">
        <ele>1408.48</ele>
        <time>2018-01-13T11:20:35Z</time>
      </trkpt>
      <trkpt lat="45.29024" lon="5.75235">
        <ele>1414.58</ele>
        <time>2018-01-13T11:20:51Z</time>
      </trkpt>
      <trkpt lat="45.29017" lon="5.75226">
        <ele>1419.98</ele>
        <time>2018-01-13T11:21:06Z</time>
      </trkpt>
      <trkpt lat="45.29019" lon="5.75213">
        <ele>1418.98</ele>
        <time>2018-01-13T11:21:15Z</time>
      </trkpt>
      <trkpt lat="45.2903" lon="5.75212">
        <ele>1420.58</ele>
        <time>2018-01-13T11:21:30Z</time>
      </trkpt>
      <trkpt lat="45.29044" lon="5.75211">
        <ele>1420.48</ele>
        <time>2018-01-13T11:21:34Z</time>
      </trkpt>
      <trkpt lat="45.29055" lon="5.75214">
        <ele>1420.28</ele>
        <time>2018-01-13T11:21:36Z</time>
      </trkpt>
      <trkpt lat="45.29044" lon="5.75215">
        <ele>1419.48</ele>
        <time>2018-01-13T11:21:43Z</time>
      </trkpt>
      <trkpt lat="45.29032" lon="5.752">
        <ele>1419.38</ele>
        <time>2018-01-13T11:21:45Z</time>
      </trkpt>
      <trkpt lat="45.29027" lon="5.75189">
        <ele>1419.48</ele>
        <time>2018-01-13T11:21:47Z</time>
      </trkpt>
      <trkpt lat="45.2902" lon="5.75199">
        <ele>1419.28</ele>
        <time>2018-01-13T11:21:53Z</time>
      </trkpt>
      <trkpt lat="45.29013" lon="5.75208">
        <ele>1415.58</ele>
        <time>2018-01-13T11:22:03Z</time>
      </trkpt>
      <trkpt lat="45.29008" lon="5.75194">
        <ele>1410.48</ele>
        <time>2018-01-13T11:22:15Z</time>
      </trkpt>
      <trkpt lat="45.29017" lon="5.75186">
        <ele>1409.88</ele>
        <time>2018-01-13T11:22:18Z</time>
      </trkpt>
      <trkpt lat="45.29023" lon="5.75176">
        <ele>1409.18</ele>
        <time>2018-01-13T11:22:22Z</time>
      </trkpt>
      <trkpt lat="45.29014" lon="5.75177">
        <ele>1408.08</ele>
        <time>2018-01-13T11:22:30Z</time>
      </trkpt>
      <trkpt lat="45.29008" lon="5.75191">
        <ele>1409.28</ele>
        <time>2018-01-13T11:22:34Z</time>
      </trkpt>
      <trkpt lat="45.28999" lon="5.75189">
        <ele>1417.58</ele>
        <time>2018-01-13T11:23:03Z</time>
      </trkpt>
      <trkpt lat="45.28989" lon="5.75186">
        <ele>1418.88</ele>
        <time>2018-01-13T11:23:28Z</time>
      </trkpt>
      <trkpt lat="45.2898" lon="5.75191">
        <ele>1420.08</ele>
        <time>2018-01-13T11:23:38Z</time>
      </trkpt>
      <trkpt lat="45.28973" lon="5.75185">
        <ele>1422.68</ele>
        <time>2018-01-13T11:23:53Z</time>
      </trkpt>
      <trkpt lat="45.28964" lon="5.75179">
        <ele>1424.08</ele>
        <time>2018-01-13T11:24:03Z</time>
      </trkpt>
      <trkpt lat="45.28954" lon="5.75175">
        <ele>1433.38</ele>
        <time>2018-01-13T11:24:28Z</time>
      </trkpt>
      <trkpt lat="45.28946" lon="5.75169">
        <ele>1437.68</ele>
        <time>2018-01-13T11:24:44Z</time>
      </trkpt>
      <trkpt lat="45.28943" lon="5.75182">
        <ele>1441.98</ele>
        <time>2018-01-13T11:24:56Z</time>
      </trkpt>
      <trkpt lat="45.28937" lon="5.75193">
        <ele>1445.78</ele>
        <time>2018-01-13T11:25:05Z</time>
      </trkpt>
      <trkpt lat="45.28943" lon="5.75183">
        <ele>1449.58</ele>
        <time>2018-01-13T11:25:11Z</time>
      </trkpt>
      <trkpt lat="45.2894" lon="5.75171">
        <ele>1451.48</ele>
        <time>2018-01-13T11:26:08Z</time>
      </trkpt>
      <trkpt lat="45.28944" lon="5.75158">
        <ele>1447.98</ele>
        <time>2018-01-13T11:27:03Z</time>
      </trkpt>
      <trkpt lat="45.28938" lon="5.75143">
        <ele>1446.38</ele>
        <time>2018-01-13T11:27:15Z</time>
      </trkpt>
      <trkpt lat="45.28942" lon="5.75131">
        <ele>1445.68</ele>
        <time>2018-01-13T11:27:21Z</time>
      </trkpt>
      <trkpt lat="45.28947" lon="5.75119">
        <ele>1445.08</ele>
        <time>2018-01-13T11:27:38Z</time>
      </trkpt>
      <trkpt lat="45.28948" lon="5.75105">
        <ele>1444.18</ele>
        <time>2018-01-13T11:27:53Z</time>
      </trkpt>
      <trkpt lat="45.28955" lon="5.75097">
        <ele>1444.08</ele>
        <time>2018-01-13T11:27:57Z</time>
      </trkpt>
      <trkpt lat="45.2896" lon="5.75082">
        <ele>1444.08</ele>
        <time>2018-01-13T11:28:01Z</time>
      </trkpt>
      <trkpt lat="45.28965" lon="5.75071">
        <ele>1444.58</ele>
        <time>2018-01-13T11:28:11Z</time>
      </trkpt>
      <trkpt lat="45.28964" lon="5.75058">
        <ele>1445.58</ele>
        <time>2018-01-13T11:28:20Z</time>
      </trkpt>
      <trkpt lat="45.2897" lon="5.75049">
        <ele>1447.68</ele>
        <time>2018-01-13T11:28:32Z</time>
      </trkpt>
      <trkpt lat="45.28978" lon="5.7504">
        <ele>1449.18</ele>
        <time>2018-01-13T11:28:39Z</time>
      </trkpt>
      <trkpt lat="45.28984" lon="5.7503">
        <ele>1450.08</ele>
        <time>2018-01-13T11:28:45Z</time>
      </trkpt>
      <trkpt lat="45.28989" lon="5.75019">
        <ele>1450.98</ele>
        <time>2018-01-13T11:28:52Z</time>
      </trkpt>
      <trkpt lat="45.28995" lon="5.75006">
        <ele>1451.78</ele>
        <time>2018-01-13T11:29:00Z</time>
      </trkpt>
      <trkpt lat="45.29001" lon="5.74996">
        <ele>1457.11</ele>
        <time>2018-01-13T11:29:12Z</time>
      </trkpt>
      <trkpt lat="45.29008" lon="5.74986">
        <ele>1463.61</ele>
        <time>2018-01-13T11:29:22Z</time>
      </trkpt>
      <trkpt lat="45.29012" lon="5.74974">
        <ele>1463.91</ele>
        <time>2018-01-13T11:29:43Z</time>
      </trkpt>
      <trkpt lat="45.29017" lon="5.74961">
        <ele>1463.31</ele>
        <time>2018-01-13T11:29:52Z</time>
      </trkpt>
      <trkpt lat="45.29024" lon="5.74951">
        <ele>1463.91</ele>
        <time>2018-01-13T11:30:04Z</time>
      </trkpt>
      <trkpt lat="45.29032" lon="5.74946">
        <ele>1463.91</ele>
        <time>2018-01-13T11:30:18Z</time>
      </trkpt>
      <trkpt lat="45.29041" lon="5.74938">
        <ele>1464.71</ele>
        <time>2018-01-13T11:30:26Z</time>
      </trkpt>
      <trkpt lat="45.29049" lon="5.74928">
        <ele>1469.01</ele>
        <time>2018-01-13T11:30:38Z</time>
      </trkpt>
      <trkpt lat="45.29058" lon="5.74926">
        <ele>1471.71</ele>
        <time>2018-01-13T11:30:43Z</time>
      </trkpt>
      <trkpt lat="45.29067" lon="5.74919">
        <ele>1475.51</ele>
        <time>2018-01-13T11:30:58Z</time>
      </trkpt>
      <trkpt lat="45.29077" lon="5.74918">
        <ele>1481.21</ele>
        <time>2018-01-13T11:31:10Z</time>
      </trkpt>
      <trkpt lat="45.29085" lon="5.7491">
        <ele>1484.31</ele>
        <time>2018-01-13T11:31:22Z</time>
      </trkpt>
      <trkpt lat="45.29094" lon="5.74905">
        <ele>1487.41</ele>
        <time>2018-01-13T11:31:31Z</time>
      </trkpt>
      <trkpt lat="45.29095" lon="5.74892">
        <ele>1484.51</ele>
        <time>2018-01-13T11:31:44Z</time>
      </trkpt>
      <trkpt lat="45.29106" lon="5.74881">
        <ele>1484.61</ele>
        <time>2018-01-13T11:31:48Z</time>
      </trkpt>
      <trkpt lat="45.29114" lon="5.74874">
        <ele>1487.01</ele>
        <time>2018-01-13T11:31:53Z</time>
      </trkpt>
      <trkpt lat="45.29117" lon="5.74861">
        <ele>1490.61</ele>
        <time>2018-01-13T11:32:01Z</time>
      </trkpt>
      <trkpt lat="45.29117" lon="5.74848">
        <ele>1493.01</ele>
        <time>2018-01-13T11:32:07Z</time>
      </trkpt>
      <trkpt lat="45.29121" lon="5.74835">
        <ele>1490.61</ele>
        <time>2018-01-13T11:32:21Z</time>
      </trkpt>
      <trkpt lat="45.29117" lon="5.74824">
        <ele>1488.41</ele>
        <time>2018-01-13T11:32:41Z</time>
      </trkpt>
      <trkpt lat="45.29123" lon="5.74811">
        <ele>1485.41</ele>
        <time>2018-01-13T11:32:52Z</time>
      </trkpt>
      <trkpt lat="45.29119" lon="5.74795">
        <ele>1489.61</ele>
        <time>2018-01-13T11:33:11Z</time>
      </trkpt>
      <trkpt lat="45.29123" lon="5.74781">
        <ele>1495.01</ele>
        <time>2018-01-13T11:33:25Z</time>
      </trkpt>
      <trkpt lat="45.29131" lon="5.74774">
        <ele>1495.11</ele>
        <time>2018-01-13T11:33:27Z</time>
      </trkpt>
      <trkpt lat="45.2914" lon="5.74767">
        <ele>1496.41</ele>
        <time>2018-01-13T11:33:32Z</time>
      </trkpt>
      <trkpt lat="45.2913" lon="5.74766">
        <ele>1499.31</ele>
        <time>2018-01-13T11:33:42Z</time>
      </trkpt>
      <trkpt lat="45.29122" lon="5.74777">
        <ele>1505.61</ele>
        <time>2018-01-13T11:34:06Z</time>
      </trkpt>
      <trkpt lat="45.29132" lon="5.74776">
        <ele>1503.81</ele>
        <time>2018-01-13T11:34:33Z</time>
      </trkpt>
      <trkpt lat="45.29126" lon="5.74766">
        <ele>1502.21</ele>
        <time>2018-01-13T11:34:45Z</time>
      </trkpt>
      <trkpt lat="45.29127" lon="5.74752">
        <ele>1503.61</ele>
        <time>2018-01-13T11:34:51Z</time>
      </trkpt>
      <trkpt lat="45.29119" lon="5.74742">
        <ele>1502.61</ele>
        <time>2018-01-13T11:34:56Z</time>
      </trkpt>
      <trkpt lat="45.2911" lon="5.7474">
        <ele>1506.71</ele>
        <time>2018-01-13T11:35:01Z</time>
      </trkpt>
      <trkpt lat="45.29102" lon="5.74734">
        <ele>1508.71</ele>
        <time>2018-01-13T11:35:10Z</time>
      </trkpt>
      <trkpt lat="45.29108" lon="5.74724">
        <ele>1503.31</ele>
        <time>2018-01-13T11:35:25Z</time>
      </trkpt>
      <trkpt lat="45.29105" lon="5.7471">
        <ele>1501.81</ele>
        <time>2018-01-13T11:35:35Z</time>
      </trkpt>
      <trkpt lat="45.29097" lon="5.74705">
        <ele>1499.91</ele>
        <time>2018-01-13T11:35:43Z</time>
      </trkpt>
      <trkpt lat="45.29092" lon="5.74694">
        <ele>1500.81</ele>
        <time>2018-01-13T11:35:53Z</time>
      </trkpt>
      <trkpt lat="45.29098" lon="5.74681">
        <ele>1502.81</ele>
        <time>2018-01-13T11:35:58Z</time>
      </trkpt>
      <trkpt lat="45.29103" lon="5.7467">
        <ele>1503.61</ele>
        <time>2018-01-13T11:36:02Z</time>
      </trkpt>
      <trkpt lat="45.29104" lon="5.74656">
        <ele>1504.51</ele>
        <time>2018-01-13T11:36:08Z</time>
      </trkpt>
      <trkpt lat="45.29097" lon="5.74647">
        <ele>1505.51</ele>
        <time>2018-01-13T11:36:14Z</time>
      </trkpt>
      <trkpt lat="45.29093" lon="5.74634">
        <ele>1507.21</ele>
        <time>2018-01-13T11:36:23Z</time>
      </trkpt>
      <trkpt lat="45.29083" lon="5.74627">
        <ele>1510.21</ele>
        <time>2018-01-13T11:36:30Z</time>
      </trkpt>
      <trkpt lat="45.29074" lon="5.74624">
        <ele>1514.81</ele>
        <time>2018-01-13T11:36:35Z</time>
      </trkpt>
      <trkpt lat="45.2907" lon="5.7461">
        <ele>1516.51</ele>
        <time>2018-01-13T11:36:45Z</time>
      </trkpt>
      <trkpt lat="45.29067" lon="5.74596">
        <ele>1517.71</ele>
        <time>2018-01-13T11:36:51Z</time>
      </trkpt>
      <trkpt lat="45.29066" lon="5.74581">
        <ele>1517.71</ele>
        <time>2018-01-13T11:36:56Z</time>
      </trkpt>
      <trkpt lat="45.29064" lon="5.74567">
        <ele>1518.61</ele>
        <time>2018-01-13T11:37:04Z</time>
      </trkpt>
      <trkpt lat="45.29065" lon="5.74554">
        <ele>1518.81</ele>
        <time>2018-01-13T11:37:09Z</time>
      </trkpt>
      <trkpt lat="45.29058" lon="5.74544">
        <ele>1519.41</ele>
        <time>2018-01-13T11:37:13Z</time>
      </trkpt>
      <trkpt lat="45.29057" lon="5.74531">
        <ele>1519.21</ele>
        <time>2018-01-13T11:37:23Z</time>
      </trkpt>
      <trkpt lat="45.29057" lon="5.74516">
        <ele>1519.61</ele>
        <time>2018-01-13T11:37:29Z</time>
      </trkpt>
      <trkpt lat="45.29056" lon="5.74503">
        <ele>1520.11</ele>
        <time>2018-01-13T11:37:34Z</time>
      </trkpt>
      <trkpt lat="45.2905" lon="5.7449">
        <ele>1521.71</ele>
        <time>2018-01-13T11:37:40Z</time>
      </trkpt>
      <trkpt lat="45.29047" lon="5.74478">
        <ele>1523.81</ele>
        <time>2018-01-13T11:37:46Z</time>
      </trkpt>
      <trkpt lat="45.29039" lon="5.74468">
        <ele>1524.91</ele>
        <time>2018-01-13T11:37:56Z</time>
      </trkpt>
      <trkpt lat="45.29031" lon="5.74462">
        <ele>1521.01</ele>
        <time>2018-01-13T11:38:04Z</time>
      </trkpt>
      <trkpt lat="45.29022" lon="5.74456">
        <ele>1514.51</ele>
        <time>2018-01-13T11:38:11Z</time>
      </trkpt>
      <trkpt lat="45.29014" lon="5.74448">
        <ele>1511.51</ele>
        <time>2018-01-13T11:38:17Z</time>
      </trkpt>
      <trkpt lat="45.29015" lon="5.74434">
        <ele>1509.31</ele>
        <time>2018-01-13T11:38:24Z</time>
      </trkpt>
      <trkpt lat="45.29012" lon="5.74421">
        <ele>1507.11</ele>
        <time>2018-01-13T11:38:33Z</time>
      </trkpt>
      <trkpt lat="45.29014" lon="5.74409">
        <ele>1504.81</ele>
        <time>2018-01-13T11:38:46Z</time>
      </trkpt>
      <trkpt lat="45.29016" lon="5.74395">
        <ele>1503.81</ele>
        <time>2018-01-13T11:38:55Z</time>
      </trkpt>
      <trkpt lat="45.2901" lon="5.74384">
        <ele>1503.01</ele>
        <time>2018-01-13T11:39:03Z</time>
      </trkpt>
      <trkpt lat="45.29002" lon="5.74375">
        <ele>1503.01</ele>
        <time>2018-01-13T11:39:09Z</time>
      </trkpt>
      <trkpt lat="45.28996" lon="5.74366">
        <ele>1504.11</ele>
        <time>2018-01-13T11:39:18Z</time>
      </trkpt>
      <trkpt lat="45.28987" lon="5.74359">
        <ele>1507.71</ele>
        <time>2018-01-13T11:39:28Z</time>
      </trkpt>
      <trkpt lat="45.28979" lon="5.74354">
        <ele>1510.81</ele>
        <time>2018-01-13T11:39:39Z</time>
      </trkpt>
      <trkpt lat="45.28969" lon="5.74353">
        <ele>1514.51</ele>
        <time>2018-01-13T11:39:47Z</time>
      </trkpt>
      <trkpt lat="45.2896" lon="5.74354">
        <ele>1521.01</ele>
        <time>2018-01-13T11:39:58Z</time>
      </trkpt>
      <trkpt lat="45.2895" lon="5.74357">
        <ele>1526.01</ele>
        <time>2018-01-13T11:40:06Z</time>
      </trkpt>
      <trkpt lat="45.28955" lon="5.74346">
        <ele>1528.11</ele>
        <time>2018-01-13T11:40:17Z</time>
      </trkpt>
      <trkpt lat="45.28961" lon="5.74333">
        <ele>1527.11</ele>
        <time>2018-01-13T11:40:22Z</time>
      </trkpt>
      <trkpt lat="45.28953" lon="5.74342">
        <ele>1525.11</ele>
        <time>2018-01-13T11:40:34Z</time>
      </trkpt>
      <trkpt lat="45.28966" lon="5.7434">
        <ele>1523.61</ele>
        <time>2018-01-13T11:40:51Z</time>
      </trkpt>
      <trkpt lat="45.28969" lon="5.74328">
        <ele>1518.71</ele>
        <time>2018-01-13T11:40:58Z</time>
      </trkpt>
      <trkpt lat="45.28973" lon="5.74316">
        <ele>1513.11</ele>
        <time>2018-01-13T11:41:13Z</time>
      </trkpt>
      <trkpt lat="45.28981" lon="5.74309">
        <ele>1511.21</ele>
        <time>2018-01-13T11:41:42Z</time>
      </trkpt>
      <trkpt lat="45.28989" lon="5.74302">
        <ele>1510.31</ele>
        <time>2018-01-13T11:41:54Z</time>
      </trkpt>
      <trkpt lat="45.28982" lon="5.74313">
        <ele>1510.51</ele>
        <time>2018-01-13T11:42:01Z</time>
      </trkpt>
      <trkpt lat="45.28973" lon="5.74309">
        <ele>1506.01</ele>
        <time>2018-01-13T11:42:10Z</time>
      </trkpt>
      <trkpt lat="45.28964" lon="5.74313">
        <ele>1506.01</ele>
        <time>2018-01-13T11:42:21Z</time>
      </trkpt>
      <trkpt lat="45.28957" lon="5.74303">
        <ele>1511.11</ele>
        <time>2018-01-13T11:42:50Z</time>
      </trkpt>
      <trkpt lat="45.28948" lon="5.74297">
        <ele>1516.41</ele>
        <time>2018-01-13T11:43:00Z</time>
      </trkpt>
      <trkpt lat="45.28944" lon="5.74283">
        <ele>1518.31</ele>
        <time>2018-01-13T11:43:09Z</time>
      </trkpt>
      <trkpt lat="45.2895" lon="5.74272">
        <ele>1520.11</ele>
        <time>2018-01-13T11:43:15Z</time>
      </trkpt>
      <trkpt lat="45.28941" lon="5.74268">
        <ele>1523.31</ele>
        <time>2018-01-13T11:43:27Z</time>
      </trkpt>
      <trkpt lat="45.2893" lon="5.74271">
        <ele>1526.41</ele>
        <time>2018-01-13T11:43:35Z</time>
      </trkpt>
      <trkpt lat="45.28922" lon="5.74264">
        <ele>1530.11</ele>
        <time>2018-01-13T11:43:44Z</time>
      </trkpt>
      <trkpt lat="45.28917" lon="5.74253">
        <ele>1535.31</ele>
        <time>2018-01-13T11:43:58Z</time>
      </trkpt>
      <trkpt lat="45.28911" lon="5.74242">
        <ele>1537.11</ele>
        <time>2018-01-13T11:44:12Z</time>
      </trkpt>
      <trkpt lat="45.28902" lon="5.74243">
        <ele>1536.81</ele>
        <time>2018-01-13T11:44:18Z</time>
      </trkpt>
      <trkpt lat="45.28909" lon="5.74232">
        <ele>1535.61</ele>
        <time>2018-01-13T11:44:35Z</time>
      </trkpt>
      <trkpt lat="45.28918" lon="5.74229">
        <ele>1537.41</ele>
        <time>2018-01-13T11:44:41Z</time>
      </trkpt>
      <trkpt lat="45.28927" lon="5.74227">
        <ele>1538.71</ele>
        <time>2018-01-13T11:44:48Z</time>
      </trkpt>
      <trkpt lat="45.28936" lon="5.7422">
        <ele>1541.31</ele>
        <time>2018-01-13T11:44:59Z</time>
      </trkpt>
      <trkpt lat="45.28945" lon="5.74221">
        <ele>1540.51</ele>
        <time>2018-01-13T11:45:06Z</time>
      </trkpt>
      <trkpt lat="45.28936" lon="5.74217">
        <ele>1535.81</ele>
        <time>2018-01-13T11:45:20Z</time>
      </trkpt>
      <trkpt lat="45.28932" lon="5.74205">
        <ele>1534.81</ele>
        <time>2018-01-13T11:45:26Z</time>
      </trkpt>
      <trkpt lat="45.2892" lon="5.74208">
        <ele>1530.81</ele>
        <time>2018-01-13T11:45:40Z</time>
      </trkpt>
      <trkpt lat="45.2891" lon="5.74202">
        <ele>1527.71</ele>
        <time>2018-01-13T11:45:45Z</time>
      </trkpt>
      <trkpt lat="45.28899" lon="5.74205">
        <ele>1525.11</ele>
        <time>2018-01-13T11:45:49Z</time>
      </trkpt>
      <trkpt lat="45.2889" lon="5.74206">
        <ele>1524.01</ele>
        <time>2018-01-13T11:45:52Z</time>
      </trkpt>
      <trkpt lat="45.28879" lon="5.74208">
        <ele>1522.91</ele>
        <time>2018-01-13T11:45:55Z</time>
      </trkpt>
      <trkpt lat="45.28889" lon="5.74198">
        <ele>1517.41</ele>
        <time>2018-01-13T11:46:06Z</time>
      </trkpt>
      <trkpt lat="45.28899" lon="5.74195">
        <ele>1516.31</ele>
        <time>2018-01-13T11:46:08Z</time>
      </trkpt>
      <trkpt lat="45.28913" lon="5.74196">
        <ele>1515.91</ele>
        <time>2018-01-13T11:46:11Z</time>
      </trkpt>
      <trkpt lat="45.28929" lon="5.74195">
        <ele>1515.91</ele>
        <time>2018-01-13T11:46:13Z</time>
      </trkpt>
      <trkpt lat="45.28939" lon="5.74196">
        <ele>1516.01</ele>
        <time>2018-01-13T11:46:15Z</time>
      </trkpt>
      <trkpt lat="45.28949" lon="5.74197">
        <ele>1515.91</ele>
        <time>2018-01-13T11:46:17Z</time>
      </trkpt>
      <trkpt lat="45.28957" lon="5.742">
        <ele>1516.61</ele>
        <time>2018-01-13T11:46:22Z</time>
      </trkpt>
      <trkpt lat="45.28967" lon="5.74201">
        <ele>1516.61</ele>
        <time>2018-01-13T11:46:28Z</time>
      </trkpt>
      <trkpt lat="45.28975" lon="5.74209">
        <ele>1517.21</ele>
        <time>2018-01-13T11:46:36Z</time>
      </trkpt>
      <trkpt lat="45.28984" lon="5.74216">
        <ele>1519.31</ele>
        <time>2018-01-13T11:46:46Z</time>
      </trkpt>
      <trkpt lat="45.28993" lon="5.74216">
        <ele>1523.71</ele>
        <time>2018-01-13T11:47:03Z</time>
      </trkpt>
      <trkpt lat="45.29004" lon="5.74221">
        <ele>1528.61</ele>
        <time>2018-01-13T11:47:22Z</time>
      </trkpt>
      <trkpt lat="45.29013" lon="5.74222">
        <ele>1532.71</ele>
        <time>2018-01-13T11:47:30Z</time>
      </trkpt>
      <trkpt lat="45.29023" lon="5.74226">
        <ele>1532.41</ele>
        <time>2018-01-13T11:47:41Z</time>
      </trkpt>
      <trkpt lat="45.29031" lon="5.74232">
        <ele>1530.31</ele>
        <time>2018-01-13T11:47:48Z</time>
      </trkpt>
      <trkpt lat="45.29036" lon="5.74243">
        <ele>1531.71</ele>
        <time>2018-01-13T11:48:04Z</time>
      </trkpt>
      <trkpt lat="45.29045" lon="5.74239">
        <ele>1533.61</ele>
        <time>2018-01-13T11:48:13Z</time>
      </trkpt>
      <trkpt lat="45.29054" lon="5.74236">
        <ele>1539.61</ele>
        <time>2018-01-13T11:48:33Z</time>
      </trkpt>
      <trkpt lat="45.29058" lon="5.74248">
        <ele>1545.21</ele>
        <time>2018-01-13T11:48:51Z</time>
      </trkpt>
      <trkpt lat="45.29063" lon="5.74259">
        <ele>1550.31</ele>
        <time>2018-01-13T11:49:04Z</time>
      </trkpt>
      <trkpt lat="45.29068" lon="5.7427">
        <ele>1552.61</ele>
        <time>2018-01-13T11:49:12Z</time>
      </trkpt>
      <trkpt lat="45.29074" lon="5.7428">
        <ele>1556.01</ele>
        <time>2018-01-13T11:49:24Z</time>
      </trkpt>
      <trkpt lat="45.29071" lon="5.74293">
        <ele>1556.61</ele>
        <time>2018-01-13T11:49:27Z</time>
      </trkpt>
      <trkpt lat="45.29077" lon="5.74301">
        <ele>1558.21</ele>
        <time>2018-01-13T11:49:31Z</time>
      </trkpt>
      <trkpt lat="45.29087" lon="5.74304">
        <ele>1560.01</ele>
        <time>2018-01-13T11:49:38Z</time>
      </trkpt>
      <trkpt lat="45.29095" lon="5.7431">
        <ele>1564.71</ele>
        <time>2018-01-13T11:49:54Z</time>
      </trkpt>
      <trkpt lat="45.29102" lon="5.74319">
        <ele>1567.21</ele>
        <time>2018-01-13T11:50:00Z</time>
      </trkpt>
      <trkpt lat="45.29104" lon="5.74334">
        <ele>1567.01</ele>
        <time>2018-01-13T11:50:07Z</time>
      </trkpt>
      <trkpt lat="45.29111" lon="5.74343">
        <ele>1568.21</ele>
        <time>2018-01-13T11:50:14Z</time>
      </trkpt>
      <trkpt lat="45.29118" lon="5.74355">
        <ele>1568.61</ele>
        <time>2018-01-13T11:50:20Z</time>
      </trkpt>
      <trkpt lat="45.29125" lon="5.74363">
        <ele>1569.11</ele>
        <time>2018-01-13T11:50:25Z</time>
      </trkpt>
      <trkpt lat="45.29134" lon="5.74368">
        <ele>1569.31</ele>
        <time>2018-01-13T11:50:31Z</time>
      </trkpt>
      <trkpt lat="45.29129" lon="5.7438">
        <ele>1570.01</ele>
        <time>2018-01-13T11:50:38Z</time>
      </trkpt>
      <trkpt lat="45.29132" lon="5.74392">
        <ele>1573.01</ele>
        <time>2018-01-13T11:50:48Z</time>
      </trkpt>
      <trkpt lat="45.29141" lon="5.74395">
        <ele>1579.01</ele>
        <time>2018-01-13T11:51:09Z</time>
      </trkpt>
      <trkpt lat="45.29147" lon="5.74407">
        <ele>1580.81</ele>
        <time>2018-01-13T11:51:18Z</time>
      </trkpt>
      <trkpt lat="45.29151" lon="5.74419">
        <ele>1579.61</ele>
        <time>2018-01-13T11:51:25Z</time>
      </trkpt>
      <trkpt lat="45.29159" lon="5.74424">
        <ele>1581.41</ele>
        <time>2018-01-13T11:51:35Z</time>
      </trkpt>
      <trkpt lat="45.29167" lon="5.74431">
        <ele>1582.41</ele>
        <time>2018-01-13T11:51:40Z</time>
      </trkpt>
      <trkpt lat="45.29175" lon="5.74436">
        <ele>1583.21</ele>
        <time>2018-01-13T11:51:43Z</time>
      </trkpt>
      <trkpt lat="45.29185" lon="5.74442">
        <ele>1585.21</ele>
        <time>2018-01-13T11:51:49Z</time>
      </trkpt>
      <trkpt lat="45.29195" lon="5.74444">
        <ele>1585.31</ele>
        <time>2018-01-13T11:51:55Z</time>
      </trkpt>
      <trkpt lat="45.29204" lon="5.74445">
        <ele>1584.61</ele>
        <time>2018-01-13T11:52:03Z</time>
      </trkpt>
      <trkpt lat="45.29212" lon="5.74453">
        <ele>1582.51</ele>
        <time>2018-01-13T11:52:08Z</time>
      </trkpt>
      <trkpt lat="45.2922" lon="5.74459">
        <ele>1575.11</ele>
        <time>2018-01-13T11:52:16Z</time>
      </trkpt>
      <trkpt lat="45.2923" lon="5.74459">
        <ele>1572.71</ele>
        <time>2018-01-13T11:52:24Z</time>
      </trkpt>
      <trkpt lat="45.29239" lon="5.74458">
        <ele>1571.61</ele>
        <time>2018-01-13T11:52:31Z</time>
      </trkpt>
      <trkpt lat="45.29248" lon="5.74454">
        <ele>1571.61</ele>
        <time>2018-01-13T11:52:49Z</time>
      </trkpt>
      <trkpt lat="45.29257" lon="5.74455">
        <ele>1567.61</ele>
        <time>2018-01-13T11:53:17Z</time>
      </trkpt>
      <trkpt lat="45.29266" lon="5.74448">
        <ele>1565.81</ele>
        <time>2018-01-13T11:53:24Z</time>
      </trkpt>
      <trkpt lat="45.29274" lon="5.7444">
        <ele>1564.31</ele>
        <time>2018-01-13T11:53:31Z</time>
      </trkpt>
      <trkpt lat="45.29281" lon="5.74431">
        <ele>1561.31</ele>
        <time>2018-01-13T11:53:40Z</time>
      </trkpt>
      <trkpt lat="45.29289" lon="5.74424">
        <ele>1556.11</ele>
        <time>2018-01-13T11:53:53Z</time>
      </trkpt>
      <trkpt lat="45.29297" lon="5.74417">
        <ele>1553.51</ele>
        <time>2018-01-13T11:54:09Z</time>
      </trkpt>
      <trkpt lat="45.29304" lon="5.74408">
        <ele>1550.31</ele>
        <time>2018-01-13T11:54:20Z</time>
      </trkpt>
      <trkpt lat="45.29312" lon="5.744">
        <ele>1549.31</ele>
        <time>2018-01-13T11:54:53Z</time>
      </trkpt>
      <trkpt lat="45.29322" lon="5.74398">
        <ele>1551.31</ele>
        <time>2018-01-13T11:55:07Z</time>
      </trkpt>
      <trkpt lat="45.29331" lon="5.74399">
        <ele>1552.21</ele>
        <time>2018-01-13T11:55:23Z</time>
      </trkpt>
      <trkpt lat="45.29341" lon="5.74393">
        <ele>1555.41</ele>
        <time>2018-01-13T11:55:36Z</time>
      </trkpt>
      <trkpt lat="45.29348" lon="5.74384">
        <ele>1556.01</ele>
        <time>2018-01-13T11:55:42Z</time>
      </trkpt>
      <trkpt lat="45.29356" lon="5.74379">
        <ele>1556.31</ele>
        <time>2018-01-13T11:55:48Z</time>
      </trkpt>
      <trkpt lat="45.29365" lon="5.7437">
        <ele>1558.21</ele>
        <time>2018-01-13T11:55:58Z</time>
      </trkpt>
      <trkpt lat="45.29373" lon="5.74364">
        <ele>1558.51</ele>
        <time>2018-01-13T11:56:07Z</time>
      </trkpt>
      <trkpt lat="45.29382" lon="5.74362">
        <ele>1558.71</ele>
        <time>2018-01-13T11:56:15Z</time>
      </trkpt>
      <trkpt lat="45.2939" lon="5.74356">
        <ele>1559.01</ele>
        <time>2018-01-13T11:56:22Z</time>
      </trkpt>
      <trkpt lat="45.29399" lon="5.74352">
        <ele>1559.21</ele>
        <time>2018-01-13T11:56:28Z</time>
      </trkpt>
      <trkpt lat="45.29409" lon="5.74355">
        <ele>1558.41</ele>
        <time>2018-01-13T11:56:39Z</time>
      </trkpt>
      <trkpt lat="45.29418" lon="5.74358">
        <ele>1558.61</ele>
        <time>2018-01-13T11:56:49Z</time>
      </trkpt>
      <trkpt lat="45.29427" lon="5.74353">
        <ele>1561.31</ele>
        <time>2018-01-13T11:56:57Z</time>
      </trkpt>
      <trkpt lat="45.29436" lon="5.74349">
        <ele>1562.91</ele>
        <time>2018-01-13T11:57:03Z</time>
      </trkpt>
      <trkpt lat="45.29447" lon="5.74348">
        <ele>1570.41</ele>
        <time>2018-01-13T11:57:23Z</time>
      </trkpt>
      <trkpt lat="45.29456" lon="5.7435">
        <ele>1570.61</ele>
        <time>2018-01-13T11:57:31Z</time>
      </trkpt>
      <trkpt lat="45.29466" lon="5.74346">
        <ele>1570.91</ele>
        <time>2018-01-13T11:57:43Z</time>
      </trkpt>
      <trkpt lat="45.29475" lon="5.7435">
        <ele>1572.21</ele>
        <time>2018-01-13T11:57:50Z</time>
      </trkpt>
      <trkpt lat="45.29484" lon="5.74354">
        <ele>1571.91</ele>
        <time>2018-01-13T11:58:02Z</time>
      </trkpt>
      <trkpt lat="45.29494" lon="5.74352">
        <ele>1570.41</ele>
        <time>2018-01-13T11:58:13Z</time>
      </trkpt>
      <trkpt lat="45.29504" lon="5.74345">
        <ele>1569.31</ele>
        <time>2018-01-13T11:58:36Z</time>
      </trkpt>
      <trkpt lat="45.29514" lon="5.74349">
        <ele>1568.71</ele>
        <time>2018-01-13T11:58:40Z</time>
      </trkpt>
      <trkpt lat="45.29524" lon="5.74349">
        <ele>1568.91</ele>
        <time>2018-01-13T11:58:43Z</time>
      </trkpt>
      <trkpt lat="45.29533" lon="5.74356">
        <ele>1574.81</ele>
        <time>2018-01-13T11:59:06Z</time>
      </trkpt>
      <trkpt lat="45.29541" lon="5.74362">
        <ele>1580.51</ele>
        <time>2018-01-13T11:59:24Z</time>
      </trkpt>
      <trkpt lat="45.29551" lon="5.74361">
        <ele>1583.51</ele>
        <time>2018-01-13T11:59:37Z</time>
      </trkpt>
      <trkpt lat="45.2956" lon="5.7436">
        <ele>1582.51</ele>
        <time>2018-01-13T11:59:45Z</time>
      </trkpt>
      <trkpt lat="45.29568" lon="5.74366">
        <ele>1582.71</ele>
        <time>2018-01-13T12:00:03Z</time>
      </trkpt>
      <trkpt lat="45.29576" lon="5.74371">
        <ele>1587.11</ele>
        <time>2018-01-13T12:00:15Z</time>
      </trkpt>
      <trkpt lat="45.29585" lon="5.74368">
        <ele>1589.11</ele>
        <time>2018-01-13T12:00:30Z</time>
      </trkpt>
      <trkpt lat="45.29595" lon="5.74367">
        <ele>1590.41</ele>
        <time>2018-01-13T12:00:40Z</time>
      </trkpt>
      <trkpt lat="45.29604" lon="5.74366">
        <ele>1593.31</ele>
        <time>2018-01-13T12:00:54Z</time>
      </trkpt>
      <trkpt lat="45.29613" lon="5.74373">
        <ele>1595.51</ele>
        <time>2018-01-13T12:01:06Z</time>
      </trkpt>
      <trkpt lat="45.29622" lon="5.74378">
        <ele>1597.01</ele>
        <time>2018-01-13T12:01:17Z</time>
      </trkpt>
      <trkpt lat="45.29631" lon="5.74379">
        <ele>1597.91</ele>
        <time>2018-01-13T12:01:29Z</time>
      </trkpt>
      <trkpt lat="45.29642" lon="5.74385">
        <ele>1598.81</ele>
        <time>2018-01-13T12:01:39Z</time>
      </trkpt>
      <trkpt lat="45.29649" lon="5.74396">
        <ele>1601.81</ele>
        <time>2018-01-13T12:01:49Z</time>
      </trkpt>
      <trkpt lat="45.29659" lon="5.74383">
        <ele>1605.71</ele>
        <time>2018-01-13T12:01:57Z</time>
      </trkpt>
      <trkpt lat="45.29657" lon="5.74396">
        <ele>1605.11</ele>
        <time>2018-01-13T12:02:03Z</time>
      </trkpt>
      <trkpt lat="45.29649" lon="5.74407">
        <ele>1605.01</ele>
        <time>2018-01-13T12:02:04Z</time>
      </trkpt>
      <trkpt lat="45.29644" lon="5.74418">
        <ele>1604.81</ele>
        <time>2018-01-13T12:02:06Z</time>
      </trkpt>
      <trkpt lat="45.29658" lon="5.74413">
        <ele>1600.11</ele>
        <time>2018-01-13T12:02:14Z</time>
      </trkpt>
      <trkpt lat="45.29661" lon="5.744">
        <ele>1600.11</ele>
        <time>2018-01-13T12:02:19Z</time>
      </trkpt>
      <trkpt lat="45.29664" lon="5.74388">
        <ele>1597.61</ele>
        <time>2018-01-13T12:02:28Z</time>
      </trkpt>
      <trkpt lat="45.29675" lon="5.74386">
        <ele>1596.21</ele>
        <time>2018-01-13T12:02:39Z</time>
      </trkpt>
      <trkpt lat="45.29685" lon="5.74386">
        <ele>1595.01</ele>
        <time>2018-01-13T12:02:43Z</time>
      </trkpt>
      <trkpt lat="45.29695" lon="5.74384">
        <ele>1595.71</ele>
        <time>2018-01-13T12:02:54Z</time>
      </trkpt>
      <trkpt lat="45.29704" lon="5.74384">
        <ele>1594.81</ele>
        <time>2018-01-13T12:03:03Z</time>
      </trkpt>
      <trkpt lat="45.29713" lon="5.74384">
        <ele>1596.31</ele>
        <time>2018-01-13T12:03:21Z</time>
      </trkpt>
      <trkpt lat="45.29722" lon="5.74385">
        <ele>1598.01</ele>
        <time>2018-01-13T12:03:34Z</time>
      </trkpt>
      <trkpt lat="45.2973" lon="5.74377">
        <ele>1600.11</ele>
        <time>2018-01-13T12:03:48Z</time>
      </trkpt>
      <trkpt lat="45.2974" lon="5.74374">
        <ele>1601.21</ele>
        <time>2018-01-13T12:03:56Z</time>
      </trkpt>
      <trkpt lat="45.29748" lon="5.74367">
        <ele>1602.21</ele>
        <time>2018-01-13T12:04:05Z</time>
      </trkpt>
      <trkpt lat="45.29758" lon="5.74364">
        <ele>1602.91</ele>
        <time>2018-01-13T12:04:14Z</time>
      </trkpt>
      <trkpt lat="45.29768" lon="5.74362">
        <ele>1603.71</ele>
        <time>2018-01-13T12:04:23Z</time>
      </trkpt>
      <trkpt lat="45.2977" lon="5.74346">
        <ele>1601.61</ele>
        <time>2018-01-13T12:04:56Z</time>
      </trkpt>
      <trkpt lat="45.29778" lon="5.7434">
        <ele>1602.61</ele>
        <time>2018-01-13T12:05:03Z</time>
      </trkpt>
      <trkpt lat="45.29785" lon="5.74329">
        <ele>1602.51</ele>
        <time>2018-01-13T12:05:09Z</time>
      </trkpt>
      <trkpt lat="45.29779" lon="5.74318">
        <ele>1603.01</ele>
        <time>2018-01-13T12:05:23Z</time>
      </trkpt>
      <trkpt lat="45.29772" lon="5.74309">
        <ele>1600.71</ele>
        <time>2018-01-13T12:05:46Z</time>
      </trkpt>
      <trkpt lat="45.29768" lon="5.74298">
        <ele>1598.31</ele>
        <time>2018-01-13T12:06:04Z</time>
      </trkpt>
      <trkpt lat="45.29762" lon="5.74287">
        <ele>1596.91</ele>
        <time>2018-01-13T12:06:09Z</time>
      </trkpt>
      <trkpt lat="45.29766" lon="5.74275">
        <ele>1588.71</ele>
        <time>2018-01-13T12:06:24Z</time>
      </trkpt>
      <trkpt lat="45.29773" lon="5.74266">
        <ele>1589.81</ele>
        <time>2018-01-13T12:06:31Z</time>
      </trkpt>
      <trkpt lat="45.29784" lon="5.74266">
        <ele>1591.31</ele>
        <time>2018-01-13T12:06:37Z</time>
      </trkpt>
      <trkpt lat="45.29792" lon="5.7426">
        <ele>1594.11</ele>
        <time>2018-01-13T12:06:44Z</time>
      </trkpt>
      <trkpt lat="45.29802" lon="5.74262">
        <ele>1593.81</ele>
        <time>2018-01-13T12:07:08Z</time>
      </trkpt>
      <trkpt lat="45.29811" lon="5.74263">
        <ele>1594.61</ele>
        <time>2018-01-13T12:07:48Z</time>
      </trkpt>
      <trkpt lat="45.2982" lon="5.74269">
        <ele>1593.51</ele>
        <time>2018-01-13T12:07:58Z</time>
      </trkpt>
      <trkpt lat="45.29829" lon="5.74272">
        <ele>1593.71</ele>
        <time>2018-01-13T12:08:06Z</time>
      </trkpt>
      <trkpt lat="45.29838" lon="5.74276">
        <ele>1594.51</ele>
        <time>2018-01-13T12:08:17Z</time>
      </trkpt>
      <trkpt lat="45.29847" lon="5.74283">
        <ele>1595.01</ele>
        <time>2018-01-13T12:08:25Z</time>
      </trkpt>
      <trkpt lat="45.29856" lon="5.74287">
        <ele>1596.01</ele>
        <time>2018-01-13T12:08:42Z</time>
      </trkpt>
      <trkpt lat="45.29865" lon="5.74292">
        <ele>1597.51</ele>
        <time>2018-01-13T12:08:51Z</time>
      </trkpt>
      <trkpt lat="45.29872" lon="5.74301">
        <ele>1599.31</ele>
        <time>2018-01-13T12:09:01Z</time>
      </trkpt>
      <trkpt lat="45.2988" lon="5.74309">
        <ele>1601.11</ele>
        <time>2018-01-13T12:09:09Z</time>
      </trkpt>
      <trkpt lat="45.29888" lon="5.74317">
        <ele>1601.11</ele>
        <time>2018-01-13T12:09:17Z</time>
      </trkpt>
      <trkpt lat="45.29895" lon="5.74327">
        <ele>1601.21</ele>
        <time>2018-01-13T12:09:25Z</time>
      </trkpt>
      <trkpt lat="45.29901" lon="5.74338">
        <ele>1600.91</ele>
        <time>2018-01-13T12:09:31Z</time>
      </trkpt>
      <trkpt lat="45.2991" lon="5.74343">
        <ele>1600.21</ele>
        <time>2018-01-13T12:09:43Z</time>
      </trkpt>
      <trkpt lat="45.2992" lon="5.74345">
        <ele>1598.71</ele>
        <time>2018-01-13T12:09:48Z</time>
      </trkpt>
      <trkpt lat="45.29911" lon="5.74341">
        <ele>1605.11</ele>
        <time>2018-01-13T12:12:43Z</time>
      </trkpt>
      <trkpt lat="45.29899" lon="5.74338">
        <ele>1604.71</ele>
        <time>2018-01-13T12:12:45Z</time>
      </trkpt>
      <trkpt lat="45.29887" lon="5.74333">
        <ele>1604.71</ele>
        <time>2018-01-13T12:12:47Z</time>
      </trkpt>
      <trkpt lat="45.29877" lon="5.74334">
        <ele>1603.81</ele>
        <time>2018-01-13T12:12:54Z</time>
      </trkpt>
      <trkpt lat="45.29869" lon="5.74331">
        <ele>1603.91</ele>
        <time>2018-01-13T12:12:59Z</time>
      </trkpt>
      <trkpt lat="45.29877" lon="5.74338">
        <ele>1604.41</ele>
        <time>2018-01-13T12:13:14Z</time>
      </trkpt>
      <trkpt lat="45.29888" lon="5.7434">
        <ele>1605.71</ele>
        <time>2018-01-13T12:13:21Z</time>
      </trkpt>
      <trkpt lat="45.29897" lon="5.74341">
        <ele>1606.71</ele>
        <time>2018-01-13T12:13:27Z</time>
      </trkpt>
      <trkpt lat="45.29905" lon="5.74347">
        <ele>1605.21</ele>
        <time>2018-01-13T12:13:32Z</time>
      </trkpt>
      <trkpt lat="45.29905" lon="5.74333">
        <ele>1602.31</ele>
        <time>2018-01-13T12:13:46Z</time>
      </trkpt>
      <trkpt lat="45.29914" lon="5.74338">
        <ele>1600.61</ele>
        <time>2018-01-13T12:13:54Z</time>
      </trkpt>
      <trkpt lat="45.29921" lon="5.74346">
        <ele>1600.81</ele>
        <time>2018-01-13T12:14:00Z</time>
      </trkpt>
      <trkpt lat="45.29912" lon="5.74338">
        <ele>1610.01</ele>
        <time>2018-01-13T12:15:10Z</time>
      </trkpt>
      <trkpt lat="45.29903" lon="5.74339">
        <ele>1611.61</ele>
        <time>2018-01-13T12:15:19Z</time>
      </trkpt>
      <trkpt lat="45.2991" lon="5.74346">
        <ele>1611.31</ele>
        <time>2018-01-13T12:16:39Z</time>
      </trkpt>
      <trkpt lat="45.299" lon="5.74344">
        <ele>1606.01</ele>
        <time>2018-01-13T12:19:24Z</time>
      </trkpt>
      <trkpt lat="45.29909" lon="5.74349">
        <ele>1605.41</ele>
        <time>2018-01-13T12:19:32Z</time>
      </trkpt>
      <trkpt lat="45.29918" lon="5.74342">
        <ele>1605.91</ele>
        <time>2018-01-13T12:19:49Z</time>
      </trkpt>
      <trkpt lat="45.29925" lon="5.74352">
        <ele>1599.31</ele>
        <time>2018-01-13T12:20:56Z</time>
      </trkpt>
      <trkpt lat="45.29933" lon="5.7436">
        <ele>1597.91</ele>
        <time>2018-01-13T12:21:08Z</time>
      </trkpt>
      <trkpt lat="45.29943" lon="5.74362">
        <ele>1595.61</ele>
        <time>2018-01-13T12:21:21Z</time>
      </trkpt>
      <trkpt lat="45.29952" lon="5.74364">
        <ele>1592.91</ele>
        <time>2018-01-13T12:21:29Z</time>
      </trkpt>
      <trkpt lat="45.29959" lon="5.74371">
        <ele>1590.31</ele>
        <time>2018-01-13T12:21:52Z</time>
      </trkpt>
      <trkpt lat="45.29968" lon="5.74375">
        <ele>1582.51</ele>
        <time>2018-01-13T12:22:20Z</time>
      </trkpt>
      <trkpt lat="45.29977" lon="5.74372">
        <ele>1573.11</ele>
        <time>2018-01-13T12:22:42Z</time>
      </trkpt>
      <trkpt lat="45.2998" lon="5.74387">
        <ele>1569.81</ele>
        <time>2018-01-13T12:22:54Z</time>
      </trkpt>
      <trkpt lat="45.2999" lon="5.7439">
        <ele>1570.41</ele>
        <time>2018-01-13T12:23:01Z</time>
      </trkpt>
      <trkpt lat="45.2998" lon="5.744">
        <ele>1570.11</ele>
        <time>2018-01-13T12:23:06Z</time>
      </trkpt>
      <trkpt lat="45.29971" lon="5.74409">
        <ele>1569.01</ele>
        <time>2018-01-13T12:23:09Z</time>
      </trkpt>
      <trkpt lat="45.29983" lon="5.74406">
        <ele>1565.21</ele>
        <time>2018-01-13T12:23:15Z</time>
      </trkpt>
      <trkpt lat="45.29994" lon="5.74403">
        <ele>1564.11</ele>
        <time>2018-01-13T12:23:17Z</time>
      </trkpt>
      <trkpt lat="45.30003" lon="5.74401">
        <ele>1561.61</ele>
        <time>2018-01-13T12:23:29Z</time>
      </trkpt>
      <trkpt lat="45.30012" lon="5.74398">
        <ele>1563.31</ele>
        <time>2018-01-13T12:23:39Z</time>
      </trkpt>
      <trkpt lat="45.30021" lon="5.74405">
        <ele>1563.41</ele>
        <time>2018-01-13T12:23:49Z</time>
      </trkpt>
      <trkpt lat="45.30027" lon="5.74414">
        <ele>1562.91</ele>
        <time>2018-01-13T12:24:01Z</time>
      </trkpt>
      <trkpt lat="45.30037" lon="5.74417">
        <ele>1562.11</ele>
        <time>2018-01-13T12:24:08Z</time>
      </trkpt>
      <trkpt lat="45.30047" lon="5.7442">
        <ele>1561.61</ele>
        <time>2018-01-13T12:24:23Z</time>
      </trkpt>
      <trkpt lat="45.30056" lon="5.7442">
        <ele>1562.91</ele>
        <time>2018-01-13T12:24:31Z</time>
      </trkpt>
      <trkpt lat="45.30065" lon="5.74427">
        <ele>1565.11</ele>
        <time>2018-01-13T12:24:43Z</time>
      </trkpt>
      <trkpt lat="45.30073" lon="5.74433">
        <ele>1566.61</ele>
        <time>2018-01-13T12:24:59Z</time>
      </trkpt>
      <trkpt lat="45.30081" lon="5.74439">
        <ele>1567.61</ele>
        <time>2018-01-13T12:25:10Z</time>
      </trkpt>
      <trkpt lat="45.3009" lon="5.74442">
        <ele>1568.81</ele>
        <time>2018-01-13T12:25:20Z</time>
      </trkpt>
      <trkpt lat="45.301" lon="5.74435">
        <ele>1569.51</ele>
        <time>2018-01-13T12:25:31Z</time>
      </trkpt>
      <trkpt lat="45.30109" lon="5.74442">
        <ele>1571.11</ele>
        <time>2018-01-13T12:25:38Z</time>
      </trkpt>
      <trkpt lat="45.30117" lon="5.7445">
        <ele>1572.71</ele>
        <time>2018-01-13T12:25:43Z</time>
      </trkpt>
      <trkpt lat="45.30125" lon="5.74465">
        <ele>1573.01</ele>
        <time>2018-01-13T12:25:45Z</time>
      </trkpt>
      <trkpt lat="45.30135" lon="5.74465">
        <ele>1571.11</ele>
        <time>2018-01-13T12:26:03Z</time>
      </trkpt>
      <trkpt lat="45.30144" lon="5.7447">
        <ele>1572.81</ele>
        <time>2018-01-13T12:26:10Z</time>
      </trkpt>
      <trkpt lat="45.30151" lon="5.74478">
        <ele>1574.81</ele>
        <time>2018-01-13T12:26:19Z</time>
      </trkpt>
      <trkpt lat="45.3016" lon="5.74486">
        <ele>1576.61</ele>
        <time>2018-01-13T12:26:28Z</time>
      </trkpt>
      <trkpt lat="45.30169" lon="5.74489">
        <ele>1578.61</ele>
        <time>2018-01-13T12:26:36Z</time>
      </trkpt>
      <trkpt lat="45.30178" lon="5.74489">
        <ele>1581.01</ele>
        <time>2018-01-13T12:26:48Z</time>
      </trkpt>
      <trkpt lat="45.30188" lon="5.74491">
        <ele>1584.01</ele>
        <time>2018-01-13T12:26:57Z</time>
      </trkpt>
      <trkpt lat="45.30196" lon="5.74496">
        <ele>1584.91</ele>
        <time>2018-01-13T12:27:04Z</time>
      </trkpt>
      <trkpt lat="45.30202" lon="5.74507">
        <ele>1587.01</ele>
        <time>2018-01-13T12:27:14Z</time>
      </trkpt>
      <trkpt lat="45.30209" lon="5.74515">
        <ele>1589.11</ele>
        <time>2018-01-13T12:27:22Z</time>
      </trkpt>
      <trkpt lat="45.30218" lon="5.74518">
        <ele>1590.31</ele>
        <time>2018-01-13T12:27:30Z</time>
      </trkpt>
      <trkpt lat="45.30225" lon="5.74527">
        <ele>1594.11</ele>
        <time>2018-01-13T12:27:45Z</time>
      </trkpt>
      <trkpt lat="45.30233" lon="5.74532">
        <ele>1595.51</ele>
        <time>2018-01-13T12:27:52Z</time>
      </trkpt>
      <trkpt lat="45.30242" lon="5.74537">
        <ele>1594.51</ele>
        <time>2018-01-13T12:28:02Z</time>
      </trkpt>
      <trkpt lat="45.3025" lon="5.74544">
        <ele>1593.01</ele>
        <time>2018-01-13T12:28:11Z</time>
      </trkpt>
      <trkpt lat="45.30258" lon="5.7455">
        <ele>1592.61</ele>
        <time>2018-01-13T12:28:18Z</time>
      </trkpt>
      <trkpt lat="45.30266" lon="5.74558">
        <ele>1592.01</ele>
        <time>2018-01-13T12:28:26Z</time>
      </trkpt>
      <trkpt lat="45.30274" lon="5.74562">
        <ele>1590.51</ele>
        <time>2018-01-13T12:28:35Z</time>
      </trkpt>
      <trkpt lat="45.30285" lon="5.74565">
        <ele>1589.51</ele>
        <time>2018-01-13T12:28:43Z</time>
      </trkpt>
      <trkpt lat="45.30295" lon="5.74569">
        <ele>1588.21</ele>
        <time>2018-01-13T12:28:55Z</time>
      </trkpt>
      <trkpt lat="45.30305" lon="5.74569">
        <ele>1588.11</ele>
        <time>2018-01-13T12:29:03Z</time>
      </trkpt>
      <trkpt lat="45.30313" lon="5.74574">
        <ele>1588.31</ele>
        <time>2018-01-13T12:29:10Z</time>
      </trkpt>
      <trkpt lat="45.30322" lon="5.74583">
        <ele>1588.51</ele>
        <time>2018-01-13T12:29:17Z</time>
      </trkpt>
      <trkpt lat="45.3033" lon="5.74589">
        <ele>1592.71</ele>
        <time>2018-01-13T12:29:25Z</time>
      </trkpt>
      <trkpt lat="45.30339" lon="5.74595">
        <ele>1595.31</ele>
        <time>2018-01-13T12:29:41Z</time>
      </trkpt>
      <trkpt lat="45.30348" lon="5.74594">
        <ele>1594.71</ele>
        <time>2018-01-13T12:29:49Z</time>
      </trkpt>
      <trkpt lat="45.30358" lon="5.74599">
        <ele>1594.81</ele>
        <time>2018-01-13T12:29:56Z</time>
      </trkpt>
      <trkpt lat="45.30365" lon="5.74608">
        <ele>1594.61</ele>
        <time>2018-01-13T12:30:08Z</time>
      </trkpt>
      <trkpt lat="45.30376" lon="5.74606">
        <ele>1595.11</ele>
        <time>2018-01-13T12:30:16Z</time>
      </trkpt>
      <trkpt lat="45.3038" lon="5.74618">
        <ele>1590.01</ele>
        <time>2018-01-13T12:30:21Z</time>
      </trkpt>
      <trkpt lat="45.30389" lon="5.74624">
        <ele>1588.11</ele>
        <time>2018-01-13T12:30:28Z</time>
      </trkpt>
      <trkpt lat="45.30398" lon="5.74624">
        <ele>1586.51</ele>
        <time>2018-01-13T12:30:32Z</time>
      </trkpt>
      <trkpt lat="45.30408" lon="5.74631">
        <ele>1581.91</ele>
        <time>2018-01-13T12:30:40Z</time>
      </trkpt>
      <trkpt lat="45.30418" lon="5.74631">
        <ele>1583.41</ele>
        <time>2018-01-13T12:30:50Z</time>
      </trkpt>
      <trkpt lat="45.30425" lon="5.74645">
        <ele>1579.01</ele>
        <time>2018-01-13T12:31:00Z</time>
      </trkpt>
      <trkpt lat="45.30434" lon="5.74644">
        <ele>1577.61</ele>
        <time>2018-01-13T12:31:05Z</time>
      </trkpt>
      <trkpt lat="45.30443" lon="5.74651">
        <ele>1578.11</ele>
        <time>2018-01-13T12:31:11Z</time>
      </trkpt>
      <trkpt lat="45.30451" lon="5.74646">
        <ele>1581.61</ele>
        <time>2018-01-13T12:31:17Z</time>
      </trkpt>
      <trkpt lat="45.30461" lon="5.74645">
        <ele>1599.71</ele>
        <time>2018-01-13T12:31:49Z</time>
      </trkpt>
      <trkpt lat="45.3047" lon="5.74648">
        <ele>1598.11</ele>
        <time>2018-01-13T12:31:59Z</time>
      </trkpt>
      <trkpt lat="45.30479" lon="5.74654">
        <ele>1600.71</ele>
        <time>2018-01-13T12:32:09Z</time>
      </trkpt>
      <trkpt lat="45.30488" lon="5.74657">
        <ele>1602.31</ele>
        <time>2018-01-13T12:32:18Z</time>
      </trkpt>
      <trkpt lat="45.30497" lon="5.74657">
        <ele>1605.21</ele>
        <time>2018-01-13T12:32:28Z</time>
      </trkpt>
      <trkpt lat="45.30506" lon="5.74665">
        <ele>1608.91</ele>
        <time>2018-01-13T12:32:40Z</time>
      </trkpt>
      <trkpt lat="45.30513" lon="5.74674">
        <ele>1614.31</ele>
        <time>2018-01-13T12:32:46Z</time>
      </trkpt>
      <trkpt lat="45.30522" lon="5.74674">
        <ele>1615.11</ele>
        <time>2018-01-13T12:32:56Z</time>
      </trkpt>
      <trkpt lat="45.30531" lon="5.74677">
        <ele>1615.31</ele>
        <time>2018-01-13T12:33:09Z</time>
      </trkpt>
      <trkpt lat="45.30527" lon="5.74688">
        <ele>1623.51</ele>
        <time>2018-01-13T12:33:37Z</time>
      </trkpt>
      <trkpt lat="45.30536" lon="5.74686">
        <ele>1624.81</ele>
        <time>2018-01-13T12:33:50Z</time>
      </trkpt>
      <trkpt lat="45.30545" lon="5.74685">
        <ele>1624.01</ele>
        <time>2018-01-13T12:34:02Z</time>
      </trkpt>
      <trkpt lat="45.30554" lon="5.74681">
        <ele>1624.01</ele>
        <time>2018-01-13T12:34:14Z</time>
      </trkpt>
      <trkpt lat="45.30563" lon="5.74685">
        <ele>1624.21</ele>
        <time>2018-01-13T12:34:24Z</time>
      </trkpt>
      <trkpt lat="45.30572" lon="5.74681">
        <ele>1624.51</ele>
        <time>2018-01-13T12:34:31Z</time>
      </trkpt>
      <trkpt lat="45.30563" lon="5.74677">
        <ele>1624.41</ele>
        <time>2018-01-13T12:34:53Z</time>
      </trkpt>
      <trkpt lat="45.30555" lon="5.74662">
        <ele>1624.41</ele>
        <time>2018-01-13T12:34:56Z</time>
      </trkpt>
      <trkpt lat="45.30546" lon="5.74651">
        <ele>1624.31</ele>
        <time>2018-01-13T12:34:58Z</time>
      </trkpt>
      <trkpt lat="45.30555" lon="5.7466">
        <ele>1624.41</ele>
        <time>2018-01-13T12:35:01Z</time>
      </trkpt>
      <trkpt lat="45.30567" lon="5.74671">
        <ele>1624.51</ele>
        <time>2018-01-13T12:35:03Z</time>
      </trkpt>
      <trkpt lat="45.30555" lon="5.74674">
        <ele>1624.51</ele>
        <time>2018-01-13T12:35:11Z</time>
      </trkpt>
      <trkpt lat="45.30612" lon="5.74715">
        <ele>1700.31</ele>
        <time>2018-01-13T12:35:27Z</time>
      </trkpt>
      <trkpt lat="45.30621" lon="5.7472">
        <ele>1644.61</ele>
        <time>2018-01-13T12:35:54Z</time>
      </trkpt>
      <trkpt lat="45.30629" lon="5.74726">
        <ele>1640.41</ele>
        <time>2018-01-13T12:36:00Z</time>
      </trkpt>
      <trkpt lat="45.30634" lon="5.74737">
        <ele>1647.91</ele>
        <time>2018-01-13T12:36:13Z</time>
      </trkpt>
      <trkpt lat="45.30644" lon="5.74742">
        <ele>1648.31</ele>
        <time>2018-01-13T12:36:26Z</time>
      </trkpt>
      <trkpt lat="45.3065" lon="5.74752">
        <ele>1647.71</ele>
        <time>2018-01-13T12:36:46Z</time>
      </trkpt>
      <trkpt lat="45.30658" lon="5.74757">
        <ele>1648.71</ele>
        <time>2018-01-13T12:36:53Z</time>
      </trkpt>
      <trkpt lat="45.30666" lon="5.74764">
        <ele>1650.11</ele>
        <time>2018-01-13T12:36:59Z</time>
      </trkpt>
      <trkpt lat="45.30675" lon="5.74768">
        <ele>1651.21</ele>
        <time>2018-01-13T12:37:06Z</time>
      </trkpt>
      <trkpt lat="45.30684" lon="5.74777">
        <ele>1652.21</ele>
        <time>2018-01-13T12:37:10Z</time>
      </trkpt>
      <trkpt lat="45.30692" lon="5.74773">
        <ele>1653.51</ele>
        <time>2018-01-13T12:37:17Z</time>
      </trkpt>
      <trkpt lat="45.30685" lon="5.74764">
        <ele>1655.31</ele>
        <time>2018-01-13T12:37:22Z</time>
      </trkpt>
      <trkpt lat="45.30692" lon="5.74772">
        <ele>1657.51</ele>
        <time>2018-01-13T12:37:40Z</time>
      </trkpt>
      <trkpt lat="45.30687" lon="5.74785">
        <ele>1659.11</ele>
        <time>2018-01-13T12:37:48Z</time>
      </trkpt>
      <trkpt lat="45.30691" lon="5.74798">
        <ele>1658.11</ele>
        <time>2018-01-13T12:37:55Z</time>
      </trkpt>
      <trkpt lat="45.30694" lon="5.74812">
        <ele>1656.71</ele>
        <time>2018-01-13T12:38:00Z</time>
      </trkpt>
      <trkpt lat="45.30698" lon="5.74824">
        <ele>1655.61</ele>
        <time>2018-01-13T12:38:05Z</time>
      </trkpt>
      <trkpt lat="45.3071" lon="5.7483">
        <ele>1655.21</ele>
        <time>2018-01-13T12:38:10Z</time>
      </trkpt>
      <trkpt lat="45.30713" lon="5.74817">
        <ele>1651.51</ele>
        <time>2018-01-13T12:38:26Z</time>
      </trkpt>
      <trkpt lat="45.30723" lon="5.74821">
        <ele>1651.61</ele>
        <time>2018-01-13T12:38:32Z</time>
      </trkpt>
      <trkpt lat="45.30727" lon="5.74806">
        <ele>1627.81</ele>
        <time>2018-01-13T12:40:01Z</time>
      </trkpt>
      <trkpt lat="45.30736" lon="5.74808">
        <ele>1630.41</ele>
        <time>2018-01-13T12:40:21Z</time>
      </trkpt>
      <trkpt lat="45.30746" lon="5.74812">
        <ele>1629.81</ele>
        <time>2018-01-13T12:40:26Z</time>
      </trkpt>
      <trkpt lat="45.30744" lon="5.74825">
        <ele>1625.41</ele>
        <time>2018-01-13T12:40:39Z</time>
      </trkpt>
      <trkpt lat="45.3074" lon="5.74838">
        <ele>1625.11</ele>
        <time>2018-01-13T12:40:49Z</time>
      </trkpt>
      <trkpt lat="45.30744" lon="5.7485">
        <ele>1625.91</ele>
        <time>2018-01-13T12:41:03Z</time>
      </trkpt>
      <trkpt lat="45.30752" lon="5.74856">
        <ele>1626.81</ele>
        <time>2018-01-13T12:41:11Z</time>
      </trkpt>
      <trkpt lat="45.30759" lon="5.74865">
        <ele>1626.91</ele>
        <time>2018-01-13T12:41:22Z</time>
      </trkpt>
      <trkpt lat="45.30765" lon="5.74875">
        <ele>1629.31</ele>
        <time>2018-01-13T12:41:32Z</time>
      </trkpt>
      <trkpt lat="45.30764" lon="5.74888">
        <ele>1633.81</ele>
        <time>2018-01-13T12:41:44Z</time>
      </trkpt>
      <trkpt lat="45.30773" lon="5.74893">
        <ele>1633.61</ele>
        <time>2018-01-13T12:41:48Z</time>
      </trkpt>
      <trkpt lat="45.3078" lon="5.74904">
        <ele>1632.21</ele>
        <time>2018-01-13T12:41:56Z</time>
      </trkpt>
      <trkpt lat="45.30785" lon="5.74918">
        <ele>1630.01</ele>
        <time>2018-01-13T12:42:08Z</time>
      </trkpt>
      <trkpt lat="45.30776" lon="5.74921">
        <ele>1629.21</ele>
        <time>2018-01-13T12:42:17Z</time>
      </trkpt>
      <trkpt lat="45.30783" lon="5.74931">
        <ele>1628.01</ele>
        <time>2018-01-13T12:42:23Z</time>
      </trkpt>
      <trkpt lat="45.30789" lon="5.74941">
        <ele>1628.21</ele>
        <time>2018-01-13T12:42:29Z</time>
      </trkpt>
      <trkpt lat="45.30795" lon="5.74951">
        <ele>1627.71</ele>
        <time>2018-01-13T12:42:36Z</time>
      </trkpt>
      <trkpt lat="45.30798" lon="5.74964">
        <ele>1627.31</ele>
        <time>2018-01-13T12:42:45Z</time>
      </trkpt>
      <trkpt lat="45.30792" lon="5.74973">
        <ele>1628.81</ele>
        <time>2018-01-13T12:42:56Z</time>
      </trkpt>
      <trkpt lat="45.30797" lon="5.74985">
        <ele>1629.81</ele>
        <time>2018-01-13T12:43:11Z</time>
      </trkpt>
      <trkpt lat="45.30801" lon="5.74997">
        <ele>1628.51</ele>
        <time>2018-01-13T12:43:17Z</time>
      </trkpt>
      <trkpt lat="45.30794" lon="5.75008">
        <ele>1623.18</ele>
        <time>2018-01-13T12:43:30Z</time>
      </trkpt>
      <trkpt lat="45.30791" lon="5.75021">
        <ele>1621.88</ele>
        <time>2018-01-13T12:43:36Z</time>
      </trkpt>
      <trkpt lat="45.30796" lon="5.75032">
        <ele>1618.78</ele>
        <time>2018-01-13T12:43:44Z</time>
      </trkpt>
      <trkpt lat="45.30805" lon="5.75034">
        <ele>1616.98</ele>
        <time>2018-01-13T12:43:52Z</time>
      </trkpt>
      <trkpt lat="45.30816" lon="5.75036">
        <ele>1617.08</ele>
        <time>2018-01-13T12:43:55Z</time>
      </trkpt>
      <trkpt lat="45.30808" lon="5.75042">
        <ele>1611.48</ele>
        <time>2018-01-13T12:44:20Z</time>
      </trkpt>
      <trkpt lat="45.30799" lon="5.75049">
        <ele>1608.48</ele>
        <time>2018-01-13T12:44:29Z</time>
      </trkpt>
      <trkpt lat="45.30813" lon="5.75054">
        <ele>1607.48</ele>
        <time>2018-01-13T12:44:32Z</time>
      </trkpt>
      <trkpt lat="45.30815" lon="5.75068">
        <ele>1605.78</ele>
        <time>2018-01-13T12:44:37Z</time>
      </trkpt>
      <trkpt lat="45.30821" lon="5.75078">
        <ele>1604.78</ele>
        <time>2018-01-13T12:44:43Z</time>
      </trkpt>
      <trkpt lat="45.30828" lon="5.7509">
        <ele>1603.08</ele>
        <time>2018-01-13T12:44:51Z</time>
      </trkpt>
      <trkpt lat="45.3083" lon="5.75102">
        <ele>1599.28</ele>
        <time>2018-01-13T12:45:00Z</time>
      </trkpt>
      <trkpt lat="45.30838" lon="5.75111">
        <ele>1594.08</ele>
        <time>2018-01-13T12:45:07Z</time>
      </trkpt>
      <trkpt lat="45.30846" lon="5.75121">
        <ele>1590.88</ele>
        <time>2018-01-13T12:45:13Z</time>
      </trkpt>
      <trkpt lat="45.3085" lon="5.75132">
        <ele>1587.48</ele>
        <time>2018-01-13T12:45:20Z</time>
      </trkpt>
      <trkpt lat="45.30856" lon="5.75144">
        <ele>1583.28</ele>
        <time>2018-01-13T12:45:27Z</time>
      </trkpt>
      <trkpt lat="45.30864" lon="5.75153">
        <ele>1580.38</ele>
        <time>2018-01-13T12:45:33Z</time>
      </trkpt>
      <trkpt lat="45.30874" lon="5.75159">
        <ele>1578.98</ele>
        <time>2018-01-13T12:45:37Z</time>
      </trkpt>
      <trkpt lat="45.30886" lon="5.75165">
        <ele>1577.18</ele>
        <time>2018-01-13T12:45:44Z</time>
      </trkpt>
      <trkpt lat="45.30885" lon="5.75178">
        <ele>1576.78</ele>
        <time>2018-01-13T12:46:01Z</time>
      </trkpt>
      <trkpt lat="45.30883" lon="5.75191">
        <ele>1578.28</ele>
        <time>2018-01-13T12:46:10Z</time>
      </trkpt>
      <trkpt lat="45.30886" lon="5.75203">
        <ele>1579.88</ele>
        <time>2018-01-13T12:46:22Z</time>
      </trkpt>
      <trkpt lat="45.3089" lon="5.75215">
        <ele>1581.98</ele>
        <time>2018-01-13T12:46:30Z</time>
      </trkpt>
      <trkpt lat="45.30892" lon="5.75229">
        <ele>1584.08</ele>
        <time>2018-01-13T12:46:38Z</time>
      </trkpt>
      <trkpt lat="45.30897" lon="5.75242">
        <ele>1588.38</ele>
        <time>2018-01-13T12:46:48Z</time>
      </trkpt>
      <trkpt lat="45.30902" lon="5.75254">
        <ele>1587.18</ele>
        <time>2018-01-13T12:46:57Z</time>
      </trkpt>
      <trkpt lat="45.30907" lon="5.75265">
        <ele>1586.18</ele>
        <time>2018-01-13T12:47:04Z</time>
      </trkpt>
      <trkpt lat="45.30915" lon="5.75276">
        <ele>1581.58</ele>
        <time>2018-01-13T12:47:11Z</time>
      </trkpt>
      <trkpt lat="45.30923" lon="5.75284">
        <ele>1577.78</ele>
        <time>2018-01-13T12:47:18Z</time>
      </trkpt>
      <trkpt lat="45.30931" lon="5.75293">
        <ele>1575.68</ele>
        <time>2018-01-13T12:47:24Z</time>
      </trkpt>
      <trkpt lat="45.30939" lon="5.75301">
        <ele>1575.48</ele>
        <time>2018-01-13T12:47:30Z</time>
      </trkpt>
      <trkpt lat="45.30946" lon="5.7531">
        <ele>1575.38</ele>
        <time>2018-01-13T12:47:37Z</time>
      </trkpt>
      <trkpt lat="45.30952" lon="5.75321">
        <ele>1575.78</ele>
        <time>2018-01-13T12:47:45Z</time>
      </trkpt>
      <trkpt lat="45.3096" lon="5.75332">
        <ele>1575.98</ele>
        <time>2018-01-13T12:47:54Z</time>
      </trkpt>
      <trkpt lat="45.30967" lon="5.7534">
        <ele>1575.78</ele>
        <time>2018-01-13T12:48:03Z</time>
      </trkpt>
      <trkpt lat="45.30974" lon="5.75349">
        <ele>1580.48</ele>
        <time>2018-01-13T12:48:49Z</time>
      </trkpt>
      <trkpt lat="45.30982" lon="5.75357">
        <ele>1582.88</ele>
        <time>2018-01-13T12:49:01Z</time>
      </trkpt>
      <trkpt lat="45.3099" lon="5.75364">
        <ele>1581.78</ele>
        <time>2018-01-13T12:49:08Z</time>
      </trkpt>
      <trkpt lat="45.30999" lon="5.7537">
        <ele>1583.18</ele>
        <time>2018-01-13T12:49:16Z</time>
      </trkpt>
      <trkpt lat="45.31008" lon="5.75374">
        <ele>1585.58</ele>
        <time>2018-01-13T12:49:24Z</time>
      </trkpt>
      <trkpt lat="45.31016" lon="5.75381">
        <ele>1586.18</ele>
        <time>2018-01-13T12:49:33Z</time>
      </trkpt>
      <trkpt lat="45.31026" lon="5.75384">
        <ele>1585.98</ele>
        <time>2018-01-13T12:50:28Z</time>
      </trkpt>
      <trkpt lat="45.31035" lon="5.75387">
        <ele>1586.38</ele>
        <time>2018-01-13T12:50:36Z</time>
      </trkpt>
      <trkpt lat="45.31044" lon="5.75392">
        <ele>1586.68</ele>
        <time>2018-01-13T12:50:43Z</time>
      </trkpt>
      <trkpt lat="45.31053" lon="5.75397">
        <ele>1587.58</ele>
        <time>2018-01-13T12:50:51Z</time>
      </trkpt>
      <trkpt lat="45.31061" lon="5.75403">
        <ele>1589.28</ele>
        <time>2018-01-13T12:51:00Z</time>
      </trkpt>
      <trkpt lat="45.31068" lon="5.75414">
        <ele>1589.08</ele>
        <time>2018-01-13T12:51:10Z</time>
      </trkpt>
      <trkpt lat="45.31077" lon="5.75418">
        <ele>1588.88</ele>
        <time>2018-01-13T12:51:16Z</time>
      </trkpt>
      <trkpt lat="45.31086" lon="5.75424">
        <ele>1588.18</ele>
        <time>2018-01-13T12:51:22Z</time>
      </trkpt>
      <trkpt lat="45.31091" lon="5.75435">
        <ele>1588.88</ele>
        <time>2018-01-13T12:51:31Z</time>
      </trkpt>
      <trkpt lat="45.31096" lon="5.75446">
        <ele>1590.28</ele>
        <time>2018-01-13T12:51:39Z</time>
      </trkpt>
      <trkpt lat="45.31104" lon="5.75454">
        <ele>1591.58</ele>
        <time>2018-01-13T12:51:57Z</time>
      </trkpt>
      <trkpt lat="45.31112" lon="5.75461">
        <ele>1588.88</ele>
        <time>2018-01-13T12:52:10Z</time>
      </trkpt>
      <trkpt lat="45.31121" lon="5.75467">
        <ele>1587.78</ele>
        <time>2018-01-13T12:52:19Z</time>
      </trkpt>
      <trkpt lat="45.3113" lon="5.75472">
        <ele>1588.88</ele>
        <time>2018-01-13T12:52:26Z</time>
      </trkpt>
      <trkpt lat="45.31139" lon="5.75473">
        <ele>1586.78</ele>
        <time>2018-01-13T12:52:33Z</time>
      </trkpt>
      <trkpt lat="45.31148" lon="5.75472">
        <ele>1585.48</ele>
        <time>2018-01-13T12:52:40Z</time>
      </trkpt>
      <trkpt lat="45.31158" lon="5.75472">
        <ele>1584.38</ele>
        <time>2018-01-13T12:52:47Z</time>
      </trkpt>
      <trkpt lat="45.31168" lon="5.7547">
        <ele>1582.88</ele>
        <time>2018-01-13T12:52:53Z</time>
      </trkpt>
      <trkpt lat="45.31179" lon="5.75473">
        <ele>1587.88</ele>
        <time>2018-01-13T12:53:02Z</time>
      </trkpt>
      <trkpt lat="45.31188" lon="5.75469">
        <ele>1591.98</ele>
        <time>2018-01-13T12:53:11Z</time>
      </trkpt>
      <trkpt lat="45.31196" lon="5.75474">
        <ele>1597.48</ele>
        <time>2018-01-13T12:53:19Z</time>
      </trkpt>
      <trkpt lat="45.31205" lon="5.7547">
        <ele>1601.38</ele>
        <time>2018-01-13T12:53:27Z</time>
      </trkpt>
      <trkpt lat="45.31213" lon="5.75462">
        <ele>1603.78</ele>
        <time>2018-01-13T12:53:34Z</time>
      </trkpt>
      <trkpt lat="45.31223" lon="5.75458">
        <ele>1602.78</ele>
        <time>2018-01-13T12:53:44Z</time>
      </trkpt>
      <trkpt lat="45.31232" lon="5.75449">
        <ele>1600.78</ele>
        <time>2018-01-13T12:53:50Z</time>
      </trkpt>
      <trkpt lat="45.31239" lon="5.75438">
        <ele>1597.68</ele>
        <time>2018-01-13T12:53:56Z</time>
      </trkpt>
      <trkpt lat="45.31247" lon="5.75429">
        <ele>1594.88</ele>
        <time>2018-01-13T12:54:03Z</time>
      </trkpt>
      <trkpt lat="45.31257" lon="5.75421">
        <ele>1583.08</ele>
        <time>2018-01-13T12:54:19Z</time>
      </trkpt>
      <trkpt lat="45.31267" lon="5.75416">
        <ele>1579.38</ele>
        <time>2018-01-13T12:54:22Z</time>
      </trkpt>
      <trkpt lat="45.31277" lon="5.7541">
        <ele>1578.68</ele>
        <time>2018-01-13T12:54:28Z</time>
      </trkpt>
      <trkpt lat="45.31287" lon="5.75406">
        <ele>1579.88</ele>
        <time>2018-01-13T12:54:34Z</time>
      </trkpt>
      <trkpt lat="45.31296" lon="5.75403">
        <ele>1583.88</ele>
        <time>2018-01-13T12:54:41Z</time>
      </trkpt>
      <trkpt lat="45.31305" lon="5.75397">
        <ele>1584.68</ele>
        <time>2018-01-13T12:54:48Z</time>
      </trkpt>
      <trkpt lat="45.31315" lon="5.75396">
        <ele>1586.98</ele>
        <time>2018-01-13T12:54:56Z</time>
      </trkpt>
      <trkpt lat="45.31323" lon="5.75388">
        <ele>1587.18</ele>
        <time>2018-01-13T12:55:01Z</time>
      </trkpt>
      <trkpt lat="45.31332" lon="5.75382">
        <ele>1585.48</ele>
        <time>2018-01-13T12:55:09Z</time>
      </trkpt>
      <trkpt lat="45.3134" lon="5.75376">
        <ele>1583.48</ele>
        <time>2018-01-13T12:55:16Z</time>
      </trkpt>
      <trkpt lat="45.31349" lon="5.75372">
        <ele>1585.48</ele>
        <time>2018-01-13T12:55:25Z</time>
      </trkpt>
      <trkpt lat="45.31359" lon="5.75374">
        <ele>1587.08</ele>
        <time>2018-01-13T12:55:33Z</time>
      </trkpt>
      <trkpt lat="45.31369" lon="5.75377">
        <ele>1586.08</ele>
        <time>2018-01-13T12:55:40Z</time>
      </trkpt>
      <trkpt lat="45.31379" lon="5.75376">
        <ele>1587.48</ele>
        <time>2018-01-13T12:55:48Z</time>
      </trkpt>
      <trkpt lat="45.31389" lon="5.75378">
        <ele>1587.18</ele>
        <time>2018-01-13T12:55:55Z</time>
      </trkpt>
      <trkpt lat="45.31399" lon="5.75377">
        <ele>1586.38</ele>
        <time>2018-01-13T12:56:03Z</time>
      </trkpt>
      <trkpt lat="45.31408" lon="5.75379">
        <ele>1587.38</ele>
        <time>2018-01-13T12:56:11Z</time>
      </trkpt>
      <trkpt lat="45.31417" lon="5.75381">
        <ele>1588.28</ele>
        <time>2018-01-13T12:56:19Z</time>
      </trkpt>
      <trkpt lat="45.31426" lon="5.75381">
        <ele>1588.08</ele>
        <time>2018-01-13T12:56:27Z</time>
      </trkpt>
      <trkpt lat="45.31435" lon="5.75384">
        <ele>1588.28</ele>
        <time>2018-01-13T12:56:35Z</time>
      </trkpt>
      <trkpt lat="45.31445" lon="5.75386">
        <ele>1589.48</ele>
        <time>2018-01-13T12:56:44Z</time>
      </trkpt>
      <trkpt lat="45.31454" lon="5.7539">
        <ele>1591.08</ele>
        <time>2018-01-13T12:56:52Z</time>
      </trkpt>
      <trkpt lat="45.31464" lon="5.75389">
        <ele>1591.38</ele>
        <time>2018-01-13T12:56:59Z</time>
      </trkpt>
      <trkpt lat="45.31474" lon="5.75388">
        <ele>1590.98</ele>
        <time>2018-01-13T12:57:07Z</time>
      </trkpt>
      <trkpt lat="45.31483" lon="5.75389">
        <ele>1592.18</ele>
        <time>2018-01-13T12:57:14Z</time>
      </trkpt>
      <trkpt lat="45.31492" lon="5.75386">
        <ele>1590.68</ele>
        <time>2018-01-13T12:57:24Z</time>
      </trkpt>
      <trkpt lat="45.31501" lon="5.75391">
        <ele>1587.38</ele>
        <time>2018-01-13T12:57:33Z</time>
      </trkpt>
      <trkpt lat="45.31508" lon="5.75401">
        <ele>1588.48</ele>
        <time>2018-01-13T12:57:40Z</time>
      </trkpt>
      <trkpt lat="45.31516" lon="5.75408">
        <ele>1592.48</ele>
        <time>2018-01-13T12:57:46Z</time>
      </trkpt>
      <trkpt lat="45.31524" lon="5.75416">
        <ele>1594.48</ele>
        <time>2018-01-13T12:57:54Z</time>
      </trkpt>
      <trkpt lat="45.31532" lon="5.75423">
        <ele>1596.68</ele>
        <time>2018-01-13T12:58:02Z</time>
      </trkpt>
      <trkpt lat="45.31541" lon="5.75427">
        <ele>1596.48</ele>
        <time>2018-01-13T12:58:09Z</time>
      </trkpt>
      <trkpt lat="45.3155" lon="5.75431">
        <ele>1596.88</ele>
        <time>2018-01-13T12:58:16Z</time>
      </trkpt>
      <trkpt lat="45.31559" lon="5.75436">
        <ele>1598.78</ele>
        <time>2018-01-13T12:58:24Z</time>
      </trkpt>
      <trkpt lat="45.31569" lon="5.7544">
        <ele>1600.88</ele>
        <time>2018-01-13T12:58:33Z</time>
      </trkpt>
      <trkpt lat="45.31578" lon="5.75441">
        <ele>1601.98</ele>
        <time>2018-01-13T12:58:41Z</time>
      </trkpt>
      <trkpt lat="45.31587" lon="5.75444">
        <ele>1602.68</ele>
        <time>2018-01-13T12:58:49Z</time>
      </trkpt>
      <trkpt lat="45.31596" lon="5.75448">
        <ele>1603.58</ele>
        <time>2018-01-13T12:58:58Z</time>
      </trkpt>
      <trkpt lat="45.31605" lon="5.75452">
        <ele>1604.28</ele>
        <time>2018-01-13T12:59:05Z</time>
      </trkpt>
      <trkpt lat="45.31613" lon="5.75459">
        <ele>1606.68</ele>
        <time>2018-01-13T12:59:12Z</time>
      </trkpt>
      <trkpt lat="45.3162" lon="5.75466">
        <ele>1606.18</ele>
        <time>2018-01-13T12:59:19Z</time>
      </trkpt>
      <trkpt lat="45.31627" lon="5.75474">
        <ele>1607.28</ele>
        <time>2018-01-13T12:59:27Z</time>
      </trkpt>
      <trkpt lat="45.31633" lon="5.75484">
        <ele>1608.88</ele>
        <time>2018-01-13T12:59:35Z</time>
      </trkpt>
      <trkpt lat="45.3164" lon="5.75493">
        <ele>1608.98</ele>
        <time>2018-01-13T12:59:43Z</time>
      </trkpt>
      <trkpt lat="45.31649" lon="5.755">
        <ele>1607.48</ele>
        <time>2018-01-13T12:59:50Z</time>
      </trkpt>
      <trkpt lat="45.31657" lon="5.75508">
        <ele>1607.68</ele>
        <time>2018-01-13T12:59:58Z</time>
      </trkpt>
      <trkpt lat="45.31664" lon="5.75518">
        <ele>1609.38</ele>
        <time>2018-01-13T13:00:08Z</time>
      </trkpt>
      <trkpt lat="45.31672" lon="5.75524">
        <ele>1608.08</ele>
        <time>2018-01-13T13:00:15Z</time>
      </trkpt>
      <trkpt lat="45.3168" lon="5.75529">
        <ele>1609.38</ele>
        <time>2018-01-13T13:00:41Z</time>
      </trkpt>
      <trkpt lat="45.31688" lon="5.75536">
        <ele>1609.18</ele>
        <time>2018-01-13T13:00:50Z</time>
      </trkpt>
      <trkpt lat="45.31697" lon="5.7554">
        <ele>1608.38</ele>
        <time>2018-01-13T13:00:57Z</time>
      </trkpt>
      <trkpt lat="45.31706" lon="5.75544">
        <ele>1607.88</ele>
        <time>2018-01-13T13:01:05Z</time>
      </trkpt>
      <trkpt lat="45.31716" lon="5.75548">
        <ele>1607.68</ele>
        <time>2018-01-13T13:01:13Z</time>
      </trkpt>
      <trkpt lat="45.31724" lon="5.75556">
        <ele>1608.18</ele>
        <time>2018-01-13T13:01:23Z</time>
      </trkpt>
      <trkpt lat="45.31732" lon="5.75561">
        <ele>1609.58</ele>
        <time>2018-01-13T13:01:31Z</time>
      </trkpt>
      <trkpt lat="45.31737" lon="5.75572">
        <ele>1611.28</ele>
        <time>2018-01-13T13:01:40Z</time>
      </trkpt>
      <trkpt lat="45.31744" lon="5.75582">
        <ele>1613.88</ele>
        <time>2018-01-13T13:01:49Z</time>
      </trkpt>
      <trkpt lat="45.31753" lon="5.75587">
        <ele>1616.08</ele>
        <time>2018-01-13T13:01:57Z</time>
      </trkpt>
      <trkpt lat="45.31762" lon="5.7559">
        <ele>1614.28</ele>
        <time>2018-01-13T13:02:05Z</time>
      </trkpt>
      <trkpt lat="45.31771" lon="5.75588">
        <ele>1610.38</ele>
        <time>2018-01-13T13:02:12Z</time>
      </trkpt>
      <trkpt lat="45.31782" lon="5.75589">
        <ele>1609.48</ele>
        <time>2018-01-13T13:02:21Z</time>
      </trkpt>
      <trkpt lat="45.31789" lon="5.7558">
        <ele>1609.88</ele>
        <time>2018-01-13T13:02:25Z</time>
      </trkpt>
      <trkpt lat="45.31796" lon="5.75572">
        <ele>1614.68</ele>
        <time>2018-01-13T13:02:38Z</time>
      </trkpt>
      <trkpt lat="45.31805" lon="5.75568">
        <ele>1614.58</ele>
        <time>2018-01-13T13:02:47Z</time>
      </trkpt>
      <trkpt lat="45.31815" lon="5.75569">
        <ele>1619.98</ele>
        <time>2018-01-13T13:02:58Z</time>
      </trkpt>
      <trkpt lat="45.31825" lon="5.75574">
        <ele>1619.38</ele>
        <time>2018-01-13T13:03:05Z</time>
      </trkpt>
      <trkpt lat="45.31833" lon="5.7558">
        <ele>1621.48</ele>
        <time>2018-01-13T13:03:12Z</time>
      </trkpt>
      <trkpt lat="45.31841" lon="5.75587">
        <ele>1621.08</ele>
        <time>2018-01-13T13:03:19Z</time>
      </trkpt>
      <trkpt lat="45.31847" lon="5.75596">
        <ele>1622.58</ele>
        <time>2018-01-13T13:03:26Z</time>
      </trkpt>
      <trkpt lat="45.31856" lon="5.75601">
        <ele>1621.48</ele>
        <time>2018-01-13T13:03:34Z</time>
      </trkpt>
      <trkpt lat="45.31863" lon="5.75609">
        <ele>1622.18</ele>
        <time>2018-01-13T13:03:43Z</time>
      </trkpt>
      <trkpt lat="45.3187" lon="5.75619">
        <ele>1623.28</ele>
        <time>2018-01-13T13:03:52Z</time>
      </trkpt>
      <trkpt lat="45.31878" lon="5.75626">
        <ele>1621.38</ele>
        <time>2018-01-13T13:04:04Z</time>
      </trkpt>
      <trkpt lat="45.31884" lon="5.75636">
        <ele>1619.78</ele>
        <time>2018-01-13T13:04:12Z</time>
      </trkpt>
      <trkpt lat="45.3189" lon="5.75647">
        <ele>1618.28</ele>
        <time>2018-01-13T13:04:19Z</time>
      </trkpt>
      <trkpt lat="45.31896" lon="5.75657">
        <ele>1617.88</ele>
        <time>2018-01-13T13:04:29Z</time>
      </trkpt>
      <trkpt lat="45.31902" lon="5.75666">
        <ele>1616.78</ele>
        <time>2018-01-13T13:05:39Z</time>
      </trkpt>
      <trkpt lat="45.31906" lon="5.75678">
        <ele>1615.88</ele>
        <time>2018-01-13T13:05:47Z</time>
      </trkpt>
      <trkpt lat="45.31909" lon="5.75691">
        <ele>1614.98</ele>
        <time>2018-01-13T13:06:13Z</time>
      </trkpt>
      <trkpt lat="45.31913" lon="5.75704">
        <ele>1616.18</ele>
        <time>2018-01-13T13:06:23Z</time>
      </trkpt>
      <trkpt lat="45.31917" lon="5.75716">
        <ele>1616.88</ele>
        <time>2018-01-13T13:06:31Z</time>
      </trkpt>
      <trkpt lat="45.31919" lon="5.7573">
        <ele>1615.58</ele>
        <time>2018-01-13T13:06:41Z</time>
      </trkpt>
      <trkpt lat="45.31921" lon="5.75742">
        <ele>1616.88</ele>
        <time>2018-01-13T13:06:49Z</time>
      </trkpt>
      <trkpt lat="45.3192" lon="5.75755">
        <ele>1618.38</ele>
        <time>2018-01-13T13:06:57Z</time>
      </trkpt>
      <trkpt lat="45.31918" lon="5.75767">
        <ele>1618.58</ele>
        <time>2018-01-13T13:07:09Z</time>
      </trkpt>
      <trkpt lat="45.31917" lon="5.75781">
        <ele>1619.78</ele>
        <time>2018-01-13T13:07:20Z</time>
      </trkpt>
      <trkpt lat="45.31917" lon="5.75794">
        <ele>1620.38</ele>
        <time>2018-01-13T13:07:29Z</time>
      </trkpt>
      <trkpt lat="45.31915" lon="5.75807">
        <ele>1621.08</ele>
        <time>2018-01-13T13:07:40Z</time>
      </trkpt>
      <trkpt lat="45.31914" lon="5.7582">
        <ele>1623.78</ele>
        <time>2018-01-13T13:07:50Z</time>
      </trkpt>
      <trkpt lat="45.31918" lon="5.75832">
        <ele>1621.98</ele>
        <time>2018-01-13T13:08:01Z</time>
      </trkpt>
      <trkpt lat="45.3192" lon="5.75846">
        <ele>1621.68</ele>
        <time>2018-01-13T13:08:13Z</time>
      </trkpt>
      <trkpt lat="45.31925" lon="5.75857">
        <ele>1623.98</ele>
        <time>2018-01-13T13:08:25Z</time>
      </trkpt>
      <trkpt lat="45.31928" lon="5.7587">
        <ele>1627.78</ele>
        <time>2018-01-13T13:08:43Z</time>
      </trkpt>
      <trkpt lat="45.31932" lon="5.75881">
        <ele>1629.78</ele>
        <time>2018-01-13T13:08:56Z</time>
      </trkpt>
      <trkpt lat="45.31938" lon="5.75893">
        <ele>1630.58</ele>
        <time>2018-01-13T13:09:12Z</time>
      </trkpt>
      <trkpt lat="45.31944" lon="5.75903">
        <ele>1633.48</ele>
        <time>2018-01-13T13:09:21Z</time>
      </trkpt>
      <trkpt lat="45.31949" lon="5.75913">
        <ele>1631.48</ele>
        <time>2018-01-13T13:09:28Z</time>
      </trkpt>
      <trkpt lat="45.31955" lon="5.75924">
        <ele>1629.68</ele>
        <time>2018-01-13T13:09:37Z</time>
      </trkpt>
      <trkpt lat="45.31952" lon="5.75937">
        <ele>1631.78</ele>
        <time>2018-01-13T13:10:52Z</time>
      </trkpt>
      <trkpt lat="45.31951" lon="5.75951">
        <ele>1631.48</ele>
        <time>2018-01-13T13:11:06Z</time>
      </trkpt>
      <trkpt lat="45.31952" lon="5.75964">
        <ele>1629.78</ele>
        <time>2018-01-13T13:11:20Z</time>
      </trkpt>
      <trkpt lat="45.31946" lon="5.75972">
        <ele>1630.28</ele>
        <time>2018-01-13T13:11:35Z</time>
      </trkpt>
      <trkpt lat="45.3194" lon="5.75983">
        <ele>1636.58</ele>
        <time>2018-01-13T13:11:55Z</time>
      </trkpt>
      <trkpt lat="45.31934" lon="5.75994">
        <ele>1639.38</ele>
        <time>2018-01-13T13:12:09Z</time>
      </trkpt>
      <trkpt lat="45.31929" lon="5.76005">
        <ele>1642.48</ele>
        <time>2018-01-13T13:12:23Z</time>
      </trkpt>
      <trkpt lat="45.31922" lon="5.76013">
        <ele>1645.78</ele>
        <time>2018-01-13T13:12:38Z</time>
      </trkpt>
      <trkpt lat="45.31916" lon="5.76024">
        <ele>1646.98</ele>
        <time>2018-01-13T13:13:05Z</time>
      </trkpt>
      <trkpt lat="45.31914" lon="5.76036">
        <ele>1646.58</ele>
        <time>2018-01-13T13:13:20Z</time>
      </trkpt>
      <trkpt lat="45.31914" lon="5.7605">
        <ele>1655.58</ele>
        <time>2018-01-13T13:14:21Z</time>
      </trkpt>
      <trkpt lat="45.3192" lon="5.7606">
        <ele>1658.58</ele>
        <time>2018-01-13T13:14:37Z</time>
      </trkpt>
      <trkpt lat="45.31928" lon="5.76066">
        <ele>1661.28</ele>
        <time>2018-01-13T13:14:48Z</time>
      </trkpt>
      <trkpt lat="45.31938" lon="5.76071">
        <ele>1661.08</ele>
        <time>2018-01-13T13:15:01Z</time>
      </trkpt>
      <trkpt lat="45.31947" lon="5.76077">
        <ele>1662.88</ele>
        <time>2018-01-13T13:15:12Z</time>
      </trkpt>
      <trkpt lat="45.31955" lon="5.76081">
        <ele>1668.08</ele>
        <time>2018-01-13T13:15:26Z</time>
      </trkpt>
      <trkpt lat="45.31963" lon="5.76089">
        <ele>1675.78</ele>
        <time>2018-01-13T13:15:44Z</time>
      </trkpt>
      <trkpt lat="45.31971" lon="5.76092">
        <ele>1679.38</ele>
        <time>2018-01-13T13:16:03Z</time>
      </trkpt>
      <trkpt lat="45.31981" lon="5.76092">
        <ele>1679.98</ele>
        <time>2018-01-13T13:16:18Z</time>
      </trkpt>
      <trkpt lat="45.31989" lon="5.76098">
        <ele>1682.88</ele>
        <time>2018-01-13T13:16:31Z</time>
      </trkpt>
      <trkpt lat="45.31998" lon="5.76102">
        <ele>1682.38</ele>
        <time>2018-01-13T13:16:50Z</time>
      </trkpt>
      <trkpt lat="45.32007" lon="5.76106">
        <ele>1681.68</ele>
        <time>2018-01-13T13:17:10Z</time>
      </trkpt>
      <trkpt lat="45.32015" lon="5.76115">
        <ele>1683.68</ele>
        <time>2018-01-13T13:17:18Z</time>
      </trkpt>
      <trkpt lat="45.32023" lon="5.76107">
        <ele>1687.38</ele>
        <time>2018-01-13T13:17:34Z</time>
      </trkpt>
      <trkpt lat="45.32029" lon="5.76118">
        <ele>1696.28</ele>
        <time>2018-01-13T13:17:55Z</time>
      </trkpt>
      <trkpt lat="45.32038" lon="5.76117">
        <ele>1701.28</ele>
        <time>2018-01-13T13:18:15Z</time>
      </trkpt>
      <trkpt lat="45.32047" lon="5.76121">
        <ele>1704.28</ele>
        <time>2018-01-13T13:18:26Z</time>
      </trkpt>
      <trkpt lat="45.32055" lon="5.7613">
        <ele>1705.38</ele>
        <time>2018-01-13T13:18:39Z</time>
      </trkpt>
      <trkpt lat="45.32064" lon="5.76135">
        <ele>1703.88</ele>
        <time>2018-01-13T13:19:03Z</time>
      </trkpt>
      <trkpt lat="45.32073" lon="5.76141">
        <ele>1705.08</ele>
        <time>2018-01-13T13:19:17Z</time>
      </trkpt>
      <trkpt lat="45.3208" lon="5.76151">
        <ele>1710.18</ele>
        <time>2018-01-13T13:19:31Z</time>
      </trkpt>
      <trkpt lat="45.32089" lon="5.76148">
        <ele>1716.28</ele>
        <time>2018-01-13T13:19:48Z</time>
      </trkpt>
      <trkpt lat="45.32094" lon="5.76159">
        <ele>1718.48</ele>
        <time>2018-01-13T13:20:05Z</time>
      </trkpt>
      <trkpt lat="45.32102" lon="5.76166">
        <ele>1721.48</ele>
        <time>2018-01-13T13:20:21Z</time>
      </trkpt>
      <trkpt lat="45.3211" lon="5.76171">
        <ele>1722.68</ele>
        <time>2018-01-13T13:20:38Z</time>
      </trkpt>
      <trkpt lat="45.32119" lon="5.76176">
        <ele>1724.58</ele>
        <time>2018-01-13T13:20:58Z</time>
      </trkpt>
      <trkpt lat="45.32129" lon="5.76172">
        <ele>1727.58</ele>
        <time>2018-01-13T13:21:19Z</time>
      </trkpt>
      <trkpt lat="45.32137" lon="5.76178">
        <ele>1732.68</ele>
        <time>2018-01-13T13:21:43Z</time>
      </trkpt>
      <trkpt lat="45.32146" lon="5.76173">
        <ele>1732.98</ele>
        <time>2018-01-13T13:22:00Z</time>
      </trkpt>
      <trkpt lat="45.32155" lon="5.76168">
        <ele>1737.78</ele>
        <time>2018-01-13T13:22:18Z</time>
      </trkpt>
      <trkpt lat="45.32164" lon="5.7617">
        <ele>1742.98</ele>
        <time>2018-01-13T13:22:39Z</time>
      </trkpt>
      <trkpt lat="45.32173" lon="5.7617">
        <ele>1744.18</ele>
        <time>2018-01-13T13:22:58Z</time>
      </trkpt>
      <trkpt lat="45.32182" lon="5.76164">
        <ele>1747.38</ele>
        <time>2018-01-13T13:23:12Z</time>
      </trkpt>
      <trkpt lat="45.32191" lon="5.76159">
        <ele>1750.88</ele>
        <time>2018-01-13T13:23:34Z</time>
      </trkpt>
      <trkpt lat="45.32197" lon="5.7615">
        <ele>1752.28</ele>
        <time>2018-01-13T13:23:52Z</time>
      </trkpt>
      <trkpt lat="45.32206" lon="5.76149">
        <ele>1753.78</ele>
        <time>2018-01-13T13:24:08Z</time>
      </trkpt>
      <trkpt lat="45.32214" lon="5.76156">
        <ele>1755.98</ele>
        <time>2018-01-13T13:24:34Z</time>
      </trkpt>
      <trkpt lat="45.32223" lon="5.76158">
        <ele>1760.28</ele>
        <time>2018-01-13T13:25:00Z</time>
      </trkpt>
      <trkpt lat="45.32232" lon="5.76153">
        <ele>1764.38</ele>
        <time>2018-01-13T13:25:11Z</time>
      </trkpt>
      <trkpt lat="45.3224" lon="5.76161">
        <ele>1772.28</ele>
        <time>2018-01-13T13:25:53Z</time>
      </trkpt>
      <trkpt lat="45.32246" lon="5.7617">
        <ele>1772.48</ele>
        <time>2018-01-13T13:26:01Z</time>
      </trkpt>
      <trkpt lat="45.32256" lon="5.76173">
        <ele>1775.38</ele>
        <time>2018-01-13T13:26:11Z</time>
      </trkpt>
      <trkpt lat="45.32265" lon="5.76174">
        <ele>1777.88</ele>
        <time>2018-01-13T13:26:21Z</time>
      </trkpt>
      <trkpt lat="45.32274" lon="5.76179">
        <ele>1778.28</ele>
        <time>2018-01-13T13:26:31Z</time>
      </trkpt>
      <trkpt lat="45.32284" lon="5.76182">
        <ele>1778.48</ele>
        <time>2018-01-13T13:26:40Z</time>
      </trkpt>
      <trkpt lat="45.32293" lon="5.76185">
        <ele>1778.98</ele>
        <time>2018-01-13T13:26:49Z</time>
      </trkpt>
      <trkpt lat="45.323" lon="5.76194">
        <ele>1782.98</ele>
        <time>2018-01-13T13:27:01Z</time>
      </trkpt>
      <trkpt lat="45.32308" lon="5.76202">
        <ele>1785.08</ele>
        <time>2018-01-13T13:27:13Z</time>
      </trkpt>
      <trkpt lat="45.32314" lon="5.76212">
        <ele>1784.28</ele>
        <time>2018-01-13T13:27:22Z</time>
      </trkpt>
      <trkpt lat="45.32323" lon="5.76218">
        <ele>1783.68</ele>
        <time>2018-01-13T13:27:31Z</time>
      </trkpt>
      <trkpt lat="45.32332" lon="5.76228">
        <ele>1784.48</ele>
        <time>2018-01-13T13:27:39Z</time>
      </trkpt>
      <trkpt lat="45.3234" lon="5.76238">
        <ele>1785.18</ele>
        <time>2018-01-13T13:27:47Z</time>
      </trkpt>
      <trkpt lat="45.32344" lon="5.76251">
        <ele>1778.58</ele>
        <time>2018-01-13T13:28:16Z</time>
      </trkpt>
      <trkpt lat="45.3235" lon="5.76261">
        <ele>1779.18</ele>
        <time>2018-01-13T13:28:23Z</time>
      </trkpt>
      <trkpt lat="45.32358" lon="5.7627">
        <ele>1780.68</ele>
        <time>2018-01-13T13:28:29Z</time>
      </trkpt>
      <trkpt lat="45.32364" lon="5.7628">
        <ele>1778.78</ele>
        <time>2018-01-13T13:28:38Z</time>
      </trkpt>
      <trkpt lat="45.32373" lon="5.76289">
        <ele>1781.78</ele>
        <time>2018-01-13T13:28:46Z</time>
      </trkpt>
      <trkpt lat="45.3238" lon="5.76297">
        <ele>1783.78</ele>
        <time>2018-01-13T13:28:53Z</time>
      </trkpt>
      <trkpt lat="45.32386" lon="5.76307">
        <ele>1785.08</ele>
        <time>2018-01-13T13:29:01Z</time>
      </trkpt>
      <trkpt lat="45.32389" lon="5.76319">
        <ele>1786.48</ele>
        <time>2018-01-13T13:29:12Z</time>
      </trkpt>
      <trkpt lat="45.32394" lon="5.76329">
        <ele>1788.98</ele>
        <time>2018-01-13T13:29:23Z</time>
      </trkpt>
      <trkpt lat="45.32403" lon="5.76337">
        <ele>1789.88</ele>
        <time>2018-01-13T13:29:29Z</time>
      </trkpt>
      <trkpt lat="45.32412" lon="5.76344">
        <ele>1790.18</ele>
        <time>2018-01-13T13:29:39Z</time>
      </trkpt>
      <trkpt lat="45.32419" lon="5.76353">
        <ele>1791.68</ele>
        <time>2018-01-13T13:29:52Z</time>
      </trkpt>
      <trkpt lat="45.32428" lon="5.7636">
        <ele>1795.08</ele>
        <time>2018-01-13T13:30:04Z</time>
      </trkpt>
      <trkpt lat="45.32436" lon="5.76366">
        <ele>1796.98</ele>
        <time>2018-01-13T13:30:13Z</time>
      </trkpt>
      <trkpt lat="45.32444" lon="5.76374">
        <ele>1800.28</ele>
        <time>2018-01-13T13:30:28Z</time>
      </trkpt>
      <trkpt lat="45.32454" lon="5.76378">
        <ele>1802.18</ele>
        <time>2018-01-13T13:30:43Z</time>
      </trkpt>
      <trkpt lat="45.32462" lon="5.76385">
        <ele>1803.88</ele>
        <time>2018-01-13T13:30:56Z</time>
      </trkpt>
      <trkpt lat="45.32472" lon="5.76392">
        <ele>1806.58</ele>
        <time>2018-01-13T13:31:13Z</time>
      </trkpt>
      <trkpt lat="45.32481" lon="5.76395">
        <ele>1808.38</ele>
        <time>2018-01-13T13:31:23Z</time>
      </trkpt>
      <trkpt lat="45.32488" lon="5.76403">
        <ele>1810.58</ele>
        <time>2018-01-13T13:31:39Z</time>
      </trkpt>
      <trkpt lat="45.32496" lon="5.7641">
        <ele>1814.58</ele>
        <time>2018-01-13T13:31:49Z</time>
      </trkpt>
      <trkpt lat="45.32505" lon="5.76415">
        <ele>1814.48</ele>
        <time>2018-01-13T13:32:06Z</time>
      </trkpt>
      <trkpt lat="45.32514" lon="5.76417">
        <ele>1819.28</ele>
        <time>2018-01-13T13:32:18Z</time>
      </trkpt>
      <trkpt lat="45.32505" lon="5.76415">
        <ele>1807.98</ele>
        <time>2018-01-13T13:36:45Z</time>
      </trkpt>
      <trkpt lat="45.32495" lon="5.76413">
        <ele>1810.58</ele>
        <time>2018-01-13T13:37:18Z</time>
      </trkpt>
      <trkpt lat="45.32489" lon="5.76404">
        <ele>1808.38</ele>
        <time>2018-01-13T13:37:27Z</time>
      </trkpt>
      <trkpt lat="45.3248" lon="5.764">
        <ele>1803.88</ele>
        <time>2018-01-13T13:38:06Z</time>
      </trkpt>
      <trkpt lat="45.32471" lon="5.76393">
        <ele>1801.68</ele>
        <time>2018-01-13T13:38:16Z</time>
      </trkpt>
      <trkpt lat="45.32464" lon="5.76384">
        <ele>1803.68</ele>
        <time>2018-01-13T13:38:24Z</time>
      </trkpt>
      <trkpt lat="45.32456" lon="5.76376">
        <ele>1802.48</ele>
        <time>2018-01-13T13:38:33Z</time>
      </trkpt>
      <trkpt lat="45.32449" lon="5.76367">
        <ele>1797.18</ele>
        <time>2018-01-13T13:38:40Z</time>
      </trkpt>
      <trkpt lat="45.3244" lon="5.76363">
        <ele>1792.18</ele>
        <time>2018-01-13T13:38:48Z</time>
      </trkpt>
      <trkpt lat="45.32431" lon="5.76358">
        <ele>1789.48</ele>
        <time>2018-01-13T13:38:53Z</time>
      </trkpt>
      <trkpt lat="45.32423" lon="5.76353">
        <ele>1786.28</ele>
        <time>2018-01-13T13:38:58Z</time>
      </trkpt>
      <trkpt lat="45.32414" lon="5.76347">
        <ele>1780.18</ele>
        <time>2018-01-13T13:39:05Z</time>
      </trkpt>
      <trkpt lat="45.32408" lon="5.76336">
        <ele>1774.48</ele>
        <time>2018-01-13T13:39:12Z</time>
      </trkpt>
      <trkpt lat="45.324" lon="5.76327">
        <ele>1775.38</ele>
        <time>2018-01-13T13:39:20Z</time>
      </trkpt>
      <trkpt lat="45.32392" lon="5.76323">
        <ele>1774.78</ele>
        <time>2018-01-13T13:39:25Z</time>
      </trkpt>
      <trkpt lat="45.32384" lon="5.76314">
        <ele>1772.48</ele>
        <time>2018-01-13T13:39:32Z</time>
      </trkpt>
      <trkpt lat="45.32379" lon="5.76302">
        <ele>1772.08</ele>
        <time>2018-01-13T13:39:43Z</time>
      </trkpt>
      <trkpt lat="45.32372" lon="5.76293">
        <ele>1771.08</ele>
        <time>2018-01-13T13:39:50Z</time>
      </trkpt>
      <trkpt lat="45.32365" lon="5.76286">
        <ele>1769.18</ele>
        <time>2018-01-13T13:39:56Z</time>
      </trkpt>
      <trkpt lat="45.32358" lon="5.76276">
        <ele>1769.08</ele>
        <time>2018-01-13T13:40:03Z</time>
      </trkpt>
      <trkpt lat="45.32352" lon="5.76266">
        <ele>1767.48</ele>
        <time>2018-01-13T13:40:11Z</time>
      </trkpt>
      <trkpt lat="45.32345" lon="5.76256">
        <ele>1767.78</ele>
        <time>2018-01-13T13:40:21Z</time>
      </trkpt>
      <trkpt lat="45.32338" lon="5.76246">
        <ele>1770.78</ele>
        <time>2018-01-13T13:40:30Z</time>
      </trkpt>
      <trkpt lat="45.32332" lon="5.76235">
        <ele>1770.88</ele>
        <time>2018-01-13T13:40:40Z</time>
      </trkpt>
      <trkpt lat="45.32329" lon="5.76223">
        <ele>1768.18</ele>
        <time>2018-01-13T13:40:47Z</time>
      </trkpt>
      <trkpt lat="45.3232" lon="5.76218">
        <ele>1767.08</ele>
        <time>2018-01-13T13:40:54Z</time>
      </trkpt>
      <trkpt lat="45.3231" lon="5.76217">
        <ele>1768.18</ele>
        <time>2018-01-13T13:41:02Z</time>
      </trkpt>
      <trkpt lat="45.32301" lon="5.76212">
        <ele>1771.98</ele>
        <time>2018-01-13T13:41:20Z</time>
      </trkpt>
      <trkpt lat="45.32296" lon="5.76201">
        <ele>1773.78</ele>
        <time>2018-01-13T13:41:31Z</time>
      </trkpt>
      <trkpt lat="45.32291" lon="5.76189">
        <ele>1774.38</ele>
        <time>2018-01-13T13:41:44Z</time>
      </trkpt>
      <trkpt lat="45.32281" lon="5.76186">
        <ele>1770.68</ele>
        <time>2018-01-13T13:41:53Z</time>
      </trkpt>
      <trkpt lat="45.32272" lon="5.76181">
        <ele>1767.88</ele>
        <time>2018-01-13T13:42:01Z</time>
      </trkpt>
      <trkpt lat="45.32263" lon="5.76178">
        <ele>1768.58</ele>
        <time>2018-01-13T13:42:09Z</time>
      </trkpt>
      <trkpt lat="45.32254" lon="5.76176">
        <ele>1770.08</ele>
        <time>2018-01-13T13:42:20Z</time>
      </trkpt>
      <trkpt lat="45.32246" lon="5.76168">
        <ele>1770.08</ele>
        <time>2018-01-13T13:42:38Z</time>
      </trkpt>
      <trkpt lat="45.32237" lon="5.7616">
        <ele>1770.08</ele>
        <time>2018-01-13T13:42:48Z</time>
      </trkpt>
      <trkpt lat="45.32228" lon="5.76157">
        <ele>1769.08</ele>
        <time>2018-01-13T13:43:00Z</time>
      </trkpt>
      <trkpt lat="45.32219" lon="5.76155">
        <ele>1764.58</ele>
        <time>2018-01-13T13:43:26Z</time>
      </trkpt>
      <trkpt lat="45.3221" lon="5.76153">
        <ele>1759.08</ele>
        <time>2018-01-13T13:43:37Z</time>
      </trkpt>
      <trkpt lat="45.322" lon="5.76149">
        <ele>1755.98</ele>
        <time>2018-01-13T13:43:45Z</time>
      </trkpt>
      <trkpt lat="45.3219" lon="5.76148">
        <ele>1751.18</ele>
        <time>2018-01-13T13:43:57Z</time>
      </trkpt>
      <trkpt lat="45.32181" lon="5.76147">
        <ele>1746.78</ele>
        <time>2018-01-13T13:44:06Z</time>
      </trkpt>
      <trkpt lat="45.32172" lon="5.76145">
        <ele>1744.58</ele>
        <time>2018-01-13T13:44:18Z</time>
      </trkpt>
      <trkpt lat="45.32163" lon="5.76142">
        <ele>1743.18</ele>
        <time>2018-01-13T13:44:34Z</time>
      </trkpt>
      <trkpt lat="45.32154" lon="5.76138">
        <ele>1740.38</ele>
        <time>2018-01-13T13:44:46Z</time>
      </trkpt>
      <trkpt lat="45.32145" lon="5.76134">
        <ele>1737.78</ele>
        <time>2018-01-13T13:44:56Z</time>
      </trkpt>
      <trkpt lat="45.32137" lon="5.76127">
        <ele>1734.18</ele>
        <time>2018-01-13T13:45:06Z</time>
      </trkpt>
      <trkpt lat="45.32128" lon="5.76125">
        <ele>1730.58</ele>
        <time>2018-01-13T13:45:17Z</time>
      </trkpt>
      <trkpt lat="45.32119" lon="5.76123">
        <ele>1725.98</ele>
        <time>2018-01-13T13:45:31Z</time>
      </trkpt>
      <trkpt lat="45.3211" lon="5.76122">
        <ele>1722.38</ele>
        <time>2018-01-13T13:45:36Z</time>
      </trkpt>
      <trkpt lat="45.321" lon="5.76119">
        <ele>1718.68</ele>
        <time>2018-01-13T13:45:44Z</time>
      </trkpt>
      <trkpt lat="45.32091" lon="5.76117">
        <ele>1714.08</ele>
        <time>2018-01-13T13:45:53Z</time>
      </trkpt>
      <trkpt lat="45.32081" lon="5.76117">
        <ele>1710.08</ele>
        <time>2018-01-13T13:46:01Z</time>
      </trkpt>
      <trkpt lat="45.32072" lon="5.76116">
        <ele>1706.08</ele>
        <time>2018-01-13T13:46:11Z</time>
      </trkpt>
      <trkpt lat="45.32063" lon="5.76112">
        <ele>1704.08</ele>
        <time>2018-01-13T13:46:28Z</time>
      </trkpt>
      <trkpt lat="45.32054" lon="5.76107">
        <ele>1700.28</ele>
        <time>2018-01-13T13:46:38Z</time>
      </trkpt>
      <trkpt lat="45.32044" lon="5.76105">
        <ele>1697.18</ele>
        <time>2018-01-13T13:46:48Z</time>
      </trkpt>
      <trkpt lat="45.32034" lon="5.76102">
        <ele>1693.78</ele>
        <time>2018-01-13T13:46:58Z</time>
      </trkpt>
      <trkpt lat="45.32025" lon="5.76102">
        <ele>1691.08</ele>
        <time>2018-01-13T13:47:59Z</time>
      </trkpt>
      <trkpt lat="45.32016" lon="5.76099">
        <ele>1688.98</ele>
        <time>2018-01-13T13:48:07Z</time>
      </trkpt>
      <trkpt lat="45.32007" lon="5.76095">
        <ele>1686.28</ele>
        <time>2018-01-13T13:48:14Z</time>
      </trkpt>
      <trkpt lat="45.31998" lon="5.76089">
        <ele>1680.28</ele>
        <time>2018-01-13T13:48:24Z</time>
      </trkpt>
      <trkpt lat="45.31989" lon="5.76086">
        <ele>1678.18</ele>
        <time>2018-01-13T13:48:40Z</time>
      </trkpt>
      <trkpt lat="45.3198" lon="5.76083">
        <ele>1675.98</ele>
        <time>2018-01-13T13:48:55Z</time>
      </trkpt>
      <trkpt lat="45.3197" lon="5.76078">
        <ele>1674.88</ele>
        <time>2018-01-13T13:49:05Z</time>
      </trkpt>
      <trkpt lat="45.31961" lon="5.76072">
        <ele>1669.28</ele>
        <time>2018-01-13T13:49:14Z</time>
      </trkpt>
      <trkpt lat="45.31951" lon="5.76069">
        <ele>1664.68</ele>
        <time>2018-01-13T13:49:21Z</time>
      </trkpt>
      <trkpt lat="45.31941" lon="5.76067">
        <ele>1660.98</ele>
        <time>2018-01-13T13:49:28Z</time>
      </trkpt>
      <trkpt lat="45.31931" lon="5.76064">
        <ele>1657.38</ele>
        <time>2018-01-13T13:49:35Z</time>
      </trkpt>
      <trkpt lat="45.31922" lon="5.76061">
        <ele>1653.68</ele>
        <time>2018-01-13T13:49:44Z</time>
      </trkpt>
      <trkpt lat="45.31913" lon="5.76058">
        <ele>1650.78</ele>
        <time>2018-01-13T13:49:50Z</time>
      </trkpt>
      <trkpt lat="45.31905" lon="5.76051">
        <ele>1647.38</ele>
        <time>2018-01-13T13:50:01Z</time>
      </trkpt>
      <trkpt lat="45.31895" lon="5.7605">
        <ele>1646.28</ele>
        <time>2018-01-13T13:50:10Z</time>
      </trkpt>
      <trkpt lat="45.31886" lon="5.76043">
        <ele>1644.98</ele>
        <time>2018-01-13T13:50:17Z</time>
      </trkpt>
      <trkpt lat="45.31877" lon="5.76039">
        <ele>1642.18</ele>
        <time>2018-01-13T13:50:23Z</time>
      </trkpt>
      <trkpt lat="45.31882" lon="5.76027">
        <ele>1638.78</ele>
        <time>2018-01-13T13:50:46Z</time>
      </trkpt>
      <trkpt lat="45.31888" lon="5.76017">
        <ele>1633.38</ele>
        <time>2018-01-13T13:51:17Z</time>
      </trkpt>
      <trkpt lat="45.31894" lon="5.76005">
        <ele>1629.98</ele>
        <time>2018-01-13T13:51:28Z</time>
      </trkpt>
      <trkpt lat="45.31897" lon="5.75991">
        <ele>1628.68</ele>
        <time>2018-01-13T13:51:37Z</time>
      </trkpt>
      <trkpt lat="45.31899" lon="5.75979">
        <ele>1624.38</ele>
        <time>2018-01-13T13:51:47Z</time>
      </trkpt>
      <trkpt lat="45.31903" lon="5.75966">
        <ele>1619.78</ele>
        <time>2018-01-13T13:52:01Z</time>
      </trkpt>
      <trkpt lat="45.31908" lon="5.75953">
        <ele>1618.38</ele>
        <time>2018-01-13T13:52:07Z</time>
      </trkpt>
      <trkpt lat="45.3191" lon="5.7594">
        <ele>1615.28</ele>
        <time>2018-01-13T13:52:14Z</time>
      </trkpt>
      <trkpt lat="45.3191" lon="5.75927">
        <ele>1615.38</ele>
        <time>2018-01-13T13:52:23Z</time>
      </trkpt>
      <trkpt lat="45.31916" lon="5.75914">
        <ele>1617.98</ele>
        <time>2018-01-13T13:52:31Z</time>
      </trkpt>
      <trkpt lat="45.31918" lon="5.75901">
        <ele>1616.98</ele>
        <time>2018-01-13T13:52:35Z</time>
      </trkpt>
      <trkpt lat="45.31912" lon="5.75891">
        <ele>1615.38</ele>
        <time>2018-01-13T13:52:53Z</time>
      </trkpt>
      <trkpt lat="45.31905" lon="5.75881">
        <ele>1604.98</ele>
        <time>2018-01-13T13:53:17Z</time>
      </trkpt>
      <trkpt lat="45.31905" lon="5.75867">
        <ele>1604.48</ele>
        <time>2018-01-13T13:53:23Z</time>
      </trkpt>
      <trkpt lat="45.319" lon="5.75855">
        <ele>1601.98</ele>
        <time>2018-01-13T13:53:34Z</time>
      </trkpt>
      <trkpt lat="45.31897" lon="5.75841">
        <ele>1601.58</ele>
        <time>2018-01-13T13:53:42Z</time>
      </trkpt>
      <trkpt lat="45.31895" lon="5.75828">
        <ele>1601.48</ele>
        <time>2018-01-13T13:53:51Z</time>
      </trkpt>
      <trkpt lat="45.31899" lon="5.75815">
        <ele>1600.58</ele>
        <time>2018-01-13T13:53:56Z</time>
      </trkpt>
      <trkpt lat="45.31895" lon="5.75804">
        <ele>1600.58</ele>
        <time>2018-01-13T13:54:05Z</time>
      </trkpt>
      <trkpt lat="45.31892" lon="5.75791">
        <ele>1604.18</ele>
        <time>2018-01-13T13:54:14Z</time>
      </trkpt>
      <trkpt lat="45.31889" lon="5.75779">
        <ele>1606.58</ele>
        <time>2018-01-13T13:54:21Z</time>
      </trkpt>
      <trkpt lat="45.31888" lon="5.75763">
        <ele>1606.18</ele>
        <time>2018-01-13T13:54:26Z</time>
      </trkpt>
      <trkpt lat="45.31889" lon="5.7575">
        <ele>1603.88</ele>
        <time>2018-01-13T13:54:30Z</time>
      </trkpt>
      <trkpt lat="45.31881" lon="5.75744">
        <ele>1601.38</ele>
        <time>2018-01-13T13:54:37Z</time>
      </trkpt>
      <trkpt lat="45.31876" lon="5.75731">
        <ele>1598.18</ele>
        <time>2018-01-13T13:54:49Z</time>
      </trkpt>
      <trkpt lat="45.31873" lon="5.75718">
        <ele>1598.38</ele>
        <time>2018-01-13T13:54:59Z</time>
      </trkpt>
      <trkpt lat="45.31871" lon="5.75705">
        <ele>1601.68</ele>
        <time>2018-01-13T13:55:08Z</time>
      </trkpt>
      <trkpt lat="45.31873" lon="5.75692">
        <ele>1601.88</ele>
        <time>2018-01-13T13:55:19Z</time>
      </trkpt>
      <trkpt lat="45.31875" lon="5.75679">
        <ele>1602.68</ele>
        <time>2018-01-13T13:55:45Z</time>
      </trkpt>
      <trkpt lat="45.31873" lon="5.75665">
        <ele>1609.98</ele>
        <time>2018-01-13T13:55:54Z</time>
      </trkpt>
      <trkpt lat="45.31875" lon="5.75653">
        <ele>1617.68</ele>
        <time>2018-01-13T13:56:02Z</time>
      </trkpt>
      <trkpt lat="45.31867" lon="5.75645">
        <ele>1620.58</ele>
        <time>2018-01-13T13:56:05Z</time>
      </trkpt>
      <trkpt lat="45.31865" lon="5.75631">
        <ele>1616.88</ele>
        <time>2018-01-13T13:56:46Z</time>
      </trkpt>
      <trkpt lat="45.3186" lon="5.75618">
        <ele>1617.08</ele>
        <time>2018-01-13T13:56:53Z</time>
      </trkpt>
      <trkpt lat="45.31855" lon="5.75606">
        <ele>1616.88</ele>
        <time>2018-01-13T13:57:03Z</time>
      </trkpt>
      <trkpt lat="45.31847" lon="5.75597">
        <ele>1616.58</ele>
        <time>2018-01-13T13:57:09Z</time>
      </trkpt>
      <trkpt lat="45.31841" lon="5.75585">
        <ele>1614.98</ele>
        <time>2018-01-13T13:57:14Z</time>
      </trkpt>
      <trkpt lat="45.31841" lon="5.75569">
        <ele>1613.08</ele>
        <time>2018-01-13T13:57:24Z</time>
      </trkpt>
      <trkpt lat="45.31831" lon="5.75567">
        <ele>1612.58</ele>
        <time>2018-01-13T13:57:30Z</time>
      </trkpt>
      <trkpt lat="45.31818" lon="5.75565">
        <ele>1611.78</ele>
        <time>2018-01-13T13:57:33Z</time>
      </trkpt>
      <trkpt lat="45.31806" lon="5.75561">
        <ele>1611.28</ele>
        <time>2018-01-13T13:57:36Z</time>
      </trkpt>
      <trkpt lat="45.31797" lon="5.75564">
        <ele>1609.48</ele>
        <time>2018-01-13T13:57:50Z</time>
      </trkpt>
      <trkpt lat="45.31787" lon="5.75568">
        <ele>1609.68</ele>
        <time>2018-01-13T13:57:57Z</time>
      </trkpt>
      <trkpt lat="45.31779" lon="5.75574">
        <ele>1608.88</ele>
        <time>2018-01-13T13:58:05Z</time>
      </trkpt>
      <trkpt lat="45.31772" lon="5.75584">
        <ele>1607.58</ele>
        <time>2018-01-13T13:58:15Z</time>
      </trkpt>
      <trkpt lat="45.31763" lon="5.75588">
        <ele>1607.08</ele>
        <time>2018-01-13T13:58:22Z</time>
      </trkpt>
      <trkpt lat="45.31753" lon="5.75588">
        <ele>1606.48</ele>
        <time>2018-01-13T13:58:29Z</time>
      </trkpt>
      <trkpt lat="45.31744" lon="5.75583">
        <ele>1606.48</ele>
        <time>2018-01-13T13:58:36Z</time>
      </trkpt>
      <trkpt lat="45.31737" lon="5.75575">
        <ele>1605.88</ele>
        <time>2018-01-13T13:58:43Z</time>
      </trkpt>
      <trkpt lat="45.31731" lon="5.75565">
        <ele>1604.58</ele>
        <time>2018-01-13T13:58:51Z</time>
      </trkpt>
      <trkpt lat="45.31724" lon="5.75557">
        <ele>1603.38</ele>
        <time>2018-01-13T13:58:59Z</time>
      </trkpt>
      <trkpt lat="45.31716" lon="5.75548">
        <ele>1602.78</ele>
        <time>2018-01-13T13:59:07Z</time>
      </trkpt>
      <trkpt lat="45.31706" lon="5.75544">
        <ele>1601.68</ele>
        <time>2018-01-13T13:59:14Z</time>
      </trkpt>
      <trkpt lat="45.31697" lon="5.75539">
        <ele>1601.08</ele>
        <time>2018-01-13T13:59:21Z</time>
      </trkpt>
      <trkpt lat="45.31687" lon="5.75537">
        <ele>1600.48</ele>
        <time>2018-01-13T13:59:27Z</time>
      </trkpt>
      <trkpt lat="45.31678" lon="5.7553">
        <ele>1599.78</ele>
        <time>2018-01-13T13:59:35Z</time>
      </trkpt>
      <trkpt lat="45.31669" lon="5.7552">
        <ele>1599.78</ele>
        <time>2018-01-13T13:59:44Z</time>
      </trkpt>
      <trkpt lat="45.31661" lon="5.75512">
        <ele>1599.18</ele>
        <time>2018-01-13T13:59:51Z</time>
      </trkpt>
      <trkpt lat="45.31652" lon="5.75507">
        <ele>1598.58</ele>
        <time>2018-01-13T13:59:56Z</time>
      </trkpt>
      <trkpt lat="45.31645" lon="5.75497">
        <ele>1597.08</ele>
        <time>2018-01-13T14:00:07Z</time>
      </trkpt>
      <trkpt lat="45.31637" lon="5.75491">
        <ele>1598.18</ele>
        <time>2018-01-13T14:00:13Z</time>
      </trkpt>
      <trkpt lat="45.31631" lon="5.7548">
        <ele>1602.18</ele>
        <time>2018-01-13T14:00:24Z</time>
      </trkpt>
      <trkpt lat="45.31622" lon="5.75475">
        <ele>1602.38</ele>
        <time>2018-01-13T14:00:28Z</time>
      </trkpt>
      <trkpt lat="45.31615" lon="5.75467">
        <ele>1602.68</ele>
        <time>2018-01-13T14:00:35Z</time>
      </trkpt>
      <trkpt lat="45.31611" lon="5.75455">
        <ele>1605.28</ele>
        <time>2018-01-13T14:00:47Z</time>
      </trkpt>
      <trkpt lat="45.316" lon="5.75451">
        <ele>1602.38</ele>
        <time>2018-01-13T14:01:01Z</time>
      </trkpt>
      <trkpt lat="45.31591" lon="5.75446">
        <ele>1598.58</ele>
        <time>2018-01-13T14:01:09Z</time>
      </trkpt>
      <trkpt lat="45.31582" lon="5.75443">
        <ele>1597.48</ele>
        <time>2018-01-13T14:01:15Z</time>
      </trkpt>
      <trkpt lat="45.31572" lon="5.75443">
        <ele>1597.38</ele>
        <time>2018-01-13T14:01:19Z</time>
      </trkpt>
      <trkpt lat="45.3156" lon="5.75437">
        <ele>1597.08</ele>
        <time>2018-01-13T14:01:23Z</time>
      </trkpt>
      <trkpt lat="45.31551" lon="5.75438">
        <ele>1598.28</ele>
        <time>2018-01-13T14:01:28Z</time>
      </trkpt>
      <trkpt lat="45.31543" lon="5.75431">
        <ele>1601.58</ele>
        <time>2018-01-13T14:01:47Z</time>
      </trkpt>
      <trkpt lat="45.31535" lon="5.75425">
        <ele>1599.18</ele>
        <time>2018-01-13T14:01:55Z</time>
      </trkpt>
      <trkpt lat="45.31527" lon="5.75418">
        <ele>1597.28</ele>
        <time>2018-01-13T14:02:04Z</time>
      </trkpt>
      <trkpt lat="45.31517" lon="5.75414">
        <ele>1596.58</ele>
        <time>2018-01-13T14:02:11Z</time>
      </trkpt>
      <trkpt lat="45.31509" lon="5.75407">
        <ele>1594.58</ele>
        <time>2018-01-13T14:02:18Z</time>
      </trkpt>
      <trkpt lat="45.31501" lon="5.754">
        <ele>1593.28</ele>
        <time>2018-01-13T14:02:24Z</time>
      </trkpt>
      <trkpt lat="45.31496" lon="5.7539">
        <ele>1592.58</ele>
        <time>2018-01-13T14:02:30Z</time>
      </trkpt>
      <trkpt lat="45.31486" lon="5.75386">
        <ele>1590.38</ele>
        <time>2018-01-13T14:02:38Z</time>
      </trkpt>
      <trkpt lat="45.31475" lon="5.75388">
        <ele>1590.08</ele>
        <time>2018-01-13T14:02:47Z</time>
      </trkpt>
      <trkpt lat="45.31465" lon="5.75386">
        <ele>1588.28</ele>
        <time>2018-01-13T14:02:52Z</time>
      </trkpt>
      <trkpt lat="45.31455" lon="5.75387">
        <ele>1587.38</ele>
        <time>2018-01-13T14:02:59Z</time>
      </trkpt>
      <trkpt lat="45.31445" lon="5.75387">
        <ele>1587.28</ele>
        <time>2018-01-13T14:03:06Z</time>
      </trkpt>
      <trkpt lat="45.31436" lon="5.75384">
        <ele>1586.88</ele>
        <time>2018-01-13T14:03:14Z</time>
      </trkpt>
      <trkpt lat="45.31426" lon="5.75383">
        <ele>1586.38</ele>
        <time>2018-01-13T14:03:22Z</time>
      </trkpt>
      <trkpt lat="45.31417" lon="5.75386">
        <ele>1586.78</ele>
        <time>2018-01-13T14:03:28Z</time>
      </trkpt>
      <trkpt lat="45.31407" lon="5.75384">
        <ele>1586.08</ele>
        <time>2018-01-13T14:03:36Z</time>
      </trkpt>
      <trkpt lat="45.31398" lon="5.75382">
        <ele>1584.38</ele>
        <time>2018-01-13T14:03:43Z</time>
      </trkpt>
      <trkpt lat="45.31388" lon="5.75381">
        <ele>1583.18</ele>
        <time>2018-01-13T14:03:51Z</time>
      </trkpt>
      <trkpt lat="45.31379" lon="5.75378">
        <ele>1581.88</ele>
        <time>2018-01-13T14:03:59Z</time>
      </trkpt>
      <trkpt lat="45.31369" lon="5.75378">
        <ele>1582.18</ele>
        <time>2018-01-13T14:04:06Z</time>
      </trkpt>
      <trkpt lat="45.3136" lon="5.75376">
        <ele>1581.38</ele>
        <time>2018-01-13T14:04:14Z</time>
      </trkpt>
      <trkpt lat="45.31351" lon="5.75376">
        <ele>1581.08</ele>
        <time>2018-01-13T14:04:21Z</time>
      </trkpt>
      <trkpt lat="45.31341" lon="5.75378">
        <ele>1581.48</ele>
        <time>2018-01-13T14:04:29Z</time>
      </trkpt>
      <trkpt lat="45.31331" lon="5.75384">
        <ele>1583.08</ele>
        <time>2018-01-13T14:04:40Z</time>
      </trkpt>
      <trkpt lat="45.31325" lon="5.75393">
        <ele>1583.68</ele>
        <time>2018-01-13T14:04:47Z</time>
      </trkpt>
      <trkpt lat="45.31316" lon="5.75398">
        <ele>1584.08</ele>
        <time>2018-01-13T14:04:53Z</time>
      </trkpt>
      <trkpt lat="45.31306" lon="5.754">
        <ele>1584.38</ele>
        <time>2018-01-13T14:05:01Z</time>
      </trkpt>
      <trkpt lat="45.31298" lon="5.75405">
        <ele>1584.48</ele>
        <time>2018-01-13T14:05:10Z</time>
      </trkpt>
      <trkpt lat="45.31287" lon="5.75407">
        <ele>1584.48</ele>
        <time>2018-01-13T14:05:17Z</time>
      </trkpt>
      <trkpt lat="45.31278" lon="5.75414">
        <ele>1584.58</ele>
        <time>2018-01-13T14:05:26Z</time>
      </trkpt>
      <trkpt lat="45.31269" lon="5.75418">
        <ele>1586.28</ele>
        <time>2018-01-13T14:05:34Z</time>
      </trkpt>
      <trkpt lat="45.31259" lon="5.75421">
        <ele>1587.08</ele>
        <time>2018-01-13T14:05:43Z</time>
      </trkpt>
      <trkpt lat="45.31252" lon="5.75428">
        <ele>1588.48</ele>
        <time>2018-01-13T14:05:53Z</time>
      </trkpt>
      <trkpt lat="45.31245" lon="5.75437">
        <ele>1589.88</ele>
        <time>2018-01-13T14:06:01Z</time>
      </trkpt>
      <trkpt lat="45.31236" lon="5.75446">
        <ele>1590.28</ele>
        <time>2018-01-13T14:06:10Z</time>
      </trkpt>
      <trkpt lat="45.31228" lon="5.75453">
        <ele>1591.08</ele>
        <time>2018-01-13T14:06:17Z</time>
      </trkpt>
      <trkpt lat="45.31223" lon="5.75465">
        <ele>1592.38</ele>
        <time>2018-01-13T14:06:28Z</time>
      </trkpt>
      <trkpt lat="45.31216" lon="5.75473">
        <ele>1592.28</ele>
        <time>2018-01-13T14:06:34Z</time>
      </trkpt>
      <trkpt lat="45.31207" lon="5.75477">
        <ele>1591.48</ele>
        <time>2018-01-13T14:06:44Z</time>
      </trkpt>
      <trkpt lat="45.31196" lon="5.75478">
        <ele>1589.48</ele>
        <time>2018-01-13T14:06:50Z</time>
      </trkpt>
      <trkpt lat="45.31186" lon="5.75479">
        <ele>1587.38</ele>
        <time>2018-01-13T14:06:57Z</time>
      </trkpt>
      <trkpt lat="45.31176" lon="5.75479">
        <ele>1585.38</ele>
        <time>2018-01-13T14:07:06Z</time>
      </trkpt>
      <trkpt lat="45.31167" lon="5.75479">
        <ele>1583.38</ele>
        <time>2018-01-13T14:07:13Z</time>
      </trkpt>
      <trkpt lat="45.31156" lon="5.75476">
        <ele>1582.08</ele>
        <time>2018-01-13T14:07:20Z</time>
      </trkpt>
      <trkpt lat="45.31146" lon="5.75476">
        <ele>1581.38</ele>
        <time>2018-01-13T14:07:25Z</time>
      </trkpt>
      <trkpt lat="45.31137" lon="5.75477">
        <ele>1581.08</ele>
        <time>2018-01-13T14:07:30Z</time>
      </trkpt>
      <trkpt lat="45.31127" lon="5.75474">
        <ele>1582.68</ele>
        <time>2018-01-13T14:07:39Z</time>
      </trkpt>
      <trkpt lat="45.31124" lon="5.75461">
        <ele>1587.08</ele>
        <time>2018-01-13T14:07:55Z</time>
      </trkpt>
      <trkpt lat="45.31114" lon="5.75468">
        <ele>1592.78</ele>
        <time>2018-01-13T14:08:01Z</time>
      </trkpt>
      <trkpt lat="45.31103" lon="5.75466">
        <ele>1594.08</ele>
        <time>2018-01-13T14:08:05Z</time>
      </trkpt>
      <trkpt lat="45.31096" lon="5.75456">
        <ele>1595.78</ele>
        <time>2018-01-13T14:08:15Z</time>
      </trkpt>
      <trkpt lat="45.31086" lon="5.7546">
        <ele>1587.58</ele>
        <time>2018-01-13T14:08:51Z</time>
      </trkpt>
      <trkpt lat="45.31074" lon="5.7546">
        <ele>1586.38</ele>
        <time>2018-01-13T14:08:54Z</time>
      </trkpt>
      <trkpt lat="45.31061" lon="5.75462">
        <ele>1585.58</ele>
        <time>2018-01-13T14:08:57Z</time>
      </trkpt>
      <trkpt lat="45.31048" lon="5.75463">
        <ele>1585.08</ele>
        <time>2018-01-13T14:08:59Z</time>
      </trkpt>
      <trkpt lat="45.31033" lon="5.7546">
        <ele>1582.88</ele>
        <time>2018-01-13T14:09:01Z</time>
      </trkpt>
      <trkpt lat="45.31062" lon="5.75457">
        <ele>1580.88</ele>
        <time>2018-01-13T14:09:02Z</time>
      </trkpt>
      <trkpt lat="45.31076" lon="5.75455">
        <ele>1581.78</ele>
        <time>2018-01-13T14:09:03Z</time>
      </trkpt>
      <trkpt lat="45.31085" lon="5.75454">
        <ele>1584.38</ele>
        <time>2018-01-13T14:09:05Z</time>
      </trkpt>
      <trkpt lat="45.31095" lon="5.75455">
        <ele>1583.38</ele>
        <time>2018-01-13T14:09:31Z</time>
      </trkpt>
      <trkpt lat="45.31089" lon="5.75445">
        <ele>1588.58</ele>
        <time>2018-01-13T14:10:37Z</time>
      </trkpt>
      <trkpt lat="45.3108" lon="5.75439">
        <ele>1582.38</ele>
        <time>2018-01-13T14:10:43Z</time>
      </trkpt>
      <trkpt lat="45.31072" lon="5.75431">
        <ele>1577.98</ele>
        <time>2018-01-13T14:10:50Z</time>
      </trkpt>
      <trkpt lat="45.31064" lon="5.75424">
        <ele>1575.28</ele>
        <time>2018-01-13T14:10:56Z</time>
      </trkpt>
      <trkpt lat="45.31056" lon="5.75417">
        <ele>1571.98</ele>
        <time>2018-01-13T14:11:03Z</time>
      </trkpt>
      <trkpt lat="45.31047" lon="5.75411">
        <ele>1569.38</ele>
        <time>2018-01-13T14:11:10Z</time>
      </trkpt>
      <trkpt lat="45.31038" lon="5.75408">
        <ele>1567.38</ele>
        <time>2018-01-13T14:11:18Z</time>
      </trkpt>
      <trkpt lat="45.31029" lon="5.75406">
        <ele>1567.88</ele>
        <time>2018-01-13T14:11:24Z</time>
      </trkpt>
      <trkpt lat="45.3102" lon="5.75406">
        <ele>1568.58</ele>
        <time>2018-01-13T14:11:30Z</time>
      </trkpt>
      <trkpt lat="45.3101" lon="5.75408">
        <ele>1568.28</ele>
        <time>2018-01-13T14:11:35Z</time>
      </trkpt>
      <trkpt lat="45.31001" lon="5.75405">
        <ele>1567.38</ele>
        <time>2018-01-13T14:11:42Z</time>
      </trkpt>
      <trkpt lat="45.30992" lon="5.75407">
        <ele>1563.98</ele>
        <time>2018-01-13T14:11:49Z</time>
      </trkpt>
      <trkpt lat="45.30982" lon="5.75405">
        <ele>1562.48</ele>
        <time>2018-01-13T14:11:59Z</time>
      </trkpt>
      <trkpt lat="45.30971" lon="5.75405">
        <ele>1561.98</ele>
        <time>2018-01-13T14:12:06Z</time>
      </trkpt>
      <trkpt lat="45.30961" lon="5.75403">
        <ele>1560.48</ele>
        <time>2018-01-13T14:12:12Z</time>
      </trkpt>
      <trkpt lat="45.30953" lon="5.75394">
        <ele>1562.88</ele>
        <time>2018-01-13T14:12:22Z</time>
      </trkpt>
      <trkpt lat="45.30944" lon="5.75387">
        <ele>1563.38</ele>
        <time>2018-01-13T14:12:28Z</time>
      </trkpt>
      <trkpt lat="45.30937" lon="5.75378">
        <ele>1567.38</ele>
        <time>2018-01-13T14:12:36Z</time>
      </trkpt>
      <trkpt lat="45.30928" lon="5.75377">
        <ele>1567.18</ele>
        <time>2018-01-13T14:12:45Z</time>
      </trkpt>
      <trkpt lat="45.30923" lon="5.75367">
        <ele>1560.68</ele>
        <time>2018-01-13T14:12:58Z</time>
      </trkpt>
      <trkpt lat="45.30915" lon="5.75357">
        <ele>1554.38</ele>
        <time>2018-01-13T14:13:03Z</time>
      </trkpt>
      <trkpt lat="45.30907" lon="5.75351">
        <ele>1550.28</ele>
        <time>2018-01-13T14:13:08Z</time>
      </trkpt>
      <trkpt lat="45.30901" lon="5.75341">
        <ele>1547.18</ele>
        <time>2018-01-13T14:13:18Z</time>
      </trkpt>
      <trkpt lat="45.30893" lon="5.75333">
        <ele>1545.18</ele>
        <time>2018-01-13T14:13:24Z</time>
      </trkpt>
      <trkpt lat="45.30884" lon="5.75328">
        <ele>1543.28</ele>
        <time>2018-01-13T14:13:29Z</time>
      </trkpt>
      <trkpt lat="45.30874" lon="5.75326">
        <ele>1541.78</ele>
        <time>2018-01-13T14:13:36Z</time>
      </trkpt>
      <trkpt lat="45.30864" lon="5.75324">
        <ele>1539.78</ele>
        <time>2018-01-13T14:13:43Z</time>
      </trkpt>
      <trkpt lat="45.30855" lon="5.75325">
        <ele>1538.08</ele>
        <time>2018-01-13T14:13:49Z</time>
      </trkpt>
      <trkpt lat="45.30845" lon="5.75321">
        <ele>1539.08</ele>
        <time>2018-01-13T14:13:57Z</time>
      </trkpt>
      <trkpt lat="45.30836" lon="5.75316">
        <ele>1539.48</ele>
        <time>2018-01-13T14:14:04Z</time>
      </trkpt>
      <trkpt lat="45.30826" lon="5.7531">
        <ele>1538.58</ele>
        <time>2018-01-13T14:14:13Z</time>
      </trkpt>
      <trkpt lat="45.30819" lon="5.75302">
        <ele>1537.68</ele>
        <time>2018-01-13T14:14:19Z</time>
      </trkpt>
      <trkpt lat="45.30812" lon="5.75291">
        <ele>1540.18</ele>
        <time>2018-01-13T14:14:32Z</time>
      </trkpt>
      <trkpt lat="45.30804" lon="5.75281">
        <ele>1543.08</ele>
        <time>2018-01-13T14:14:39Z</time>
      </trkpt>
      <trkpt lat="45.30795" lon="5.75273">
        <ele>1537.98</ele>
        <time>2018-01-13T14:14:45Z</time>
      </trkpt>
      <trkpt lat="45.30786" lon="5.75266">
        <ele>1534.48</ele>
        <time>2018-01-13T14:14:52Z</time>
      </trkpt>
      <trkpt lat="45.30778" lon="5.75257">
        <ele>1534.18</ele>
        <time>2018-01-13T14:14:59Z</time>
      </trkpt>
      <trkpt lat="45.30771" lon="5.75247">
        <ele>1534.88</ele>
        <time>2018-01-13T14:15:05Z</time>
      </trkpt>
      <trkpt lat="45.30768" lon="5.75234">
        <ele>1533.28</ele>
        <time>2018-01-13T14:15:08Z</time>
      </trkpt>
      <trkpt lat="45.30758" lon="5.7523">
        <ele>1532.68</ele>
        <time>2018-01-13T14:15:20Z</time>
      </trkpt>
      <trkpt lat="45.3075" lon="5.75217">
        <ele>1535.88</ele>
        <time>2018-01-13T14:15:33Z</time>
      </trkpt>
      <trkpt lat="45.30741" lon="5.75208">
        <ele>1534.18</ele>
        <time>2018-01-13T14:15:49Z</time>
      </trkpt>
      <trkpt lat="45.30743" lon="5.75221">
        <ele>1534.98</ele>
        <time>2018-01-13T14:15:55Z</time>
      </trkpt>
      <trkpt lat="45.30747" lon="5.75233">
        <ele>1533.48</ele>
        <time>2018-01-13T14:16:03Z</time>
      </trkpt>
      <trkpt lat="45.30753" lon="5.75244">
        <ele>1534.68</ele>
        <time>2018-01-13T14:16:12Z</time>
      </trkpt>
      <trkpt lat="45.30756" lon="5.75258">
        <ele>1535.48</ele>
        <time>2018-01-13T14:16:17Z</time>
      </trkpt>
      <trkpt lat="45.30759" lon="5.75271">
        <ele>1536.88</ele>
        <time>2018-01-13T14:16:23Z</time>
      </trkpt>
      <trkpt lat="45.30765" lon="5.75282">
        <ele>1538.08</ele>
        <time>2018-01-13T14:16:30Z</time>
      </trkpt>
      <trkpt lat="45.3078" lon="5.75287">
        <ele>1538.68</ele>
        <time>2018-01-13T14:16:34Z</time>
      </trkpt>
      <trkpt lat="45.30768" lon="5.75288">
        <ele>1538.48</ele>
        <time>2018-01-13T14:16:35Z</time>
      </trkpt>
      <trkpt lat="45.30778" lon="5.75289">
        <ele>1540.78</ele>
        <time>2018-01-13T14:16:42Z</time>
      </trkpt>
      <trkpt lat="45.30784" lon="5.75299">
        <ele>1544.08</ele>
        <time>2018-01-13T14:16:48Z</time>
      </trkpt>
      <trkpt lat="45.30786" lon="5.75312">
        <ele>1547.18</ele>
        <time>2018-01-13T14:16:55Z</time>
      </trkpt>
      <trkpt lat="45.30791" lon="5.75324">
        <ele>1552.78</ele>
        <time>2018-01-13T14:17:03Z</time>
      </trkpt>
      <trkpt lat="45.30797" lon="5.75336">
        <ele>1556.98</ele>
        <time>2018-01-13T14:17:12Z</time>
      </trkpt>
      <trkpt lat="45.308" lon="5.75349">
        <ele>1556.38</ele>
        <time>2018-01-13T14:17:19Z</time>
      </trkpt>
      <trkpt lat="45.30805" lon="5.75361">
        <ele>1550.48</ele>
        <time>2018-01-13T14:17:22Z</time>
      </trkpt>
      <trkpt lat="45.30815" lon="5.75364">
        <ele>1548.78</ele>
        <time>2018-01-13T14:17:28Z</time>
      </trkpt>
      <trkpt lat="45.30825" lon="5.7536">
        <ele>1547.48</ele>
        <time>2018-01-13T14:17:32Z</time>
      </trkpt>
      <trkpt lat="45.30836" lon="5.75363">
        <ele>1547.18</ele>
        <time>2018-01-13T14:17:36Z</time>
      </trkpt>
      <trkpt lat="45.30835" lon="5.75378">
        <ele>1544.88</ele>
        <time>2018-01-13T14:17:43Z</time>
      </trkpt>
      <trkpt lat="45.30828" lon="5.75391">
        <ele>1543.68</ele>
        <time>2018-01-13T14:17:45Z</time>
      </trkpt>
      <trkpt lat="45.3083" lon="5.75407">
        <ele>1542.78</ele>
        <time>2018-01-13T14:17:51Z</time>
      </trkpt>
      <trkpt lat="45.30824" lon="5.75421">
        <ele>1542.78</ele>
        <time>2018-01-13T14:17:54Z</time>
      </trkpt>
      <trkpt lat="45.30817" lon="5.75434">
        <ele>1542.18</ele>
        <time>2018-01-13T14:17:56Z</time>
      </trkpt>
      <trkpt lat="45.30804" lon="5.75441">
        <ele>1540.58</ele>
        <time>2018-01-13T14:17:58Z</time>
      </trkpt>
      <trkpt lat="45.30815" lon="5.75441">
        <ele>1539.38</ele>
        <time>2018-01-13T14:18:02Z</time>
      </trkpt>
      <trkpt lat="45.30826" lon="5.75437">
        <ele>1538.38</ele>
        <time>2018-01-13T14:18:05Z</time>
      </trkpt>
      <trkpt lat="45.30834" lon="5.7543">
        <ele>1537.08</ele>
        <time>2018-01-13T14:18:07Z</time>
      </trkpt>
      <trkpt lat="45.30844" lon="5.75431">
        <ele>1533.88</ele>
        <time>2018-01-13T14:18:13Z</time>
      </trkpt>
      <trkpt lat="45.30852" lon="5.75436">
        <ele>1532.58</ele>
        <time>2018-01-13T14:18:19Z</time>
      </trkpt>
      <trkpt lat="45.30854" lon="5.7545">
        <ele>1530.38</ele>
        <time>2018-01-13T14:18:28Z</time>
      </trkpt>
      <trkpt lat="45.30852" lon="5.75462">
        <ele>1529.38</ele>
        <time>2018-01-13T14:18:35Z</time>
      </trkpt>
      <trkpt lat="45.30854" lon="5.75476">
        <ele>1533.48</ele>
        <time>2018-01-13T14:18:41Z</time>
      </trkpt>
      <trkpt lat="45.30864" lon="5.7548">
        <ele>1535.98</ele>
        <time>2018-01-13T14:18:47Z</time>
      </trkpt>
      <trkpt lat="45.30871" lon="5.7549">
        <ele>1535.78</ele>
        <time>2018-01-13T14:18:54Z</time>
      </trkpt>
      <trkpt lat="45.30866" lon="5.75503">
        <ele>1536.68</ele>
        <time>2018-01-13T14:18:57Z</time>
      </trkpt>
      <trkpt lat="45.30878" lon="5.75506">
        <ele>1538.18</ele>
        <time>2018-01-13T14:19:01Z</time>
      </trkpt>
      <trkpt lat="45.3089" lon="5.75497">
        <ele>1538.68</ele>
        <time>2018-01-13T14:19:03Z</time>
      </trkpt>
      <trkpt lat="45.30902" lon="5.75482">
        <ele>1539.48</ele>
        <time>2018-01-13T14:19:05Z</time>
      </trkpt>
      <trkpt lat="45.30914" lon="5.75472">
        <ele>1540.28</ele>
        <time>2018-01-13T14:19:07Z</time>
      </trkpt>
      <trkpt lat="45.30927" lon="5.75464">
        <ele>1540.28</ele>
        <time>2018-01-13T14:19:09Z</time>
      </trkpt>
      <trkpt lat="45.30937" lon="5.75459">
        <ele>1540.58</ele>
        <time>2018-01-13T14:19:10Z</time>
      </trkpt>
      <trkpt lat="45.30945" lon="5.75452">
        <ele>1541.28</ele>
        <time>2018-01-13T14:19:11Z</time>
      </trkpt>
      <trkpt lat="45.30939" lon="5.75462">
        <ele>1540.98</ele>
        <time>2018-01-13T14:19:14Z</time>
      </trkpt>
      <trkpt lat="45.30933" lon="5.75474">
        <ele>1538.78</ele>
        <time>2018-01-13T14:19:16Z</time>
      </trkpt>
      <trkpt lat="45.30943" lon="5.75469">
        <ele>1538.48</ele>
        <time>2018-01-13T14:19:21Z</time>
      </trkpt>
      <trkpt lat="45.30953" lon="5.7546">
        <ele>1540.98</ele>
        <time>2018-01-13T14:19:25Z</time>
      </trkpt>
      <trkpt lat="45.30966" lon="5.75448">
        <ele>1542.28</ele>
        <time>2018-01-13T14:19:27Z</time>
      </trkpt>
      <trkpt lat="45.30974" lon="5.75439">
        <ele>1543.68</ele>
        <time>2018-01-13T14:19:29Z</time>
      </trkpt>
      <trkpt lat="45.30963" lon="5.7544">
        <ele>1545.38</ele>
        <time>2018-01-13T14:19:35Z</time>
      </trkpt>
      <trkpt lat="45.30955" lon="5.75446">
        <ele>1546.18</ele>
        <time>2018-01-13T14:19:38Z</time>
      </trkpt>
      <trkpt lat="45.30944" lon="5.75457">
        <ele>1544.88</ele>
        <time>2018-01-13T14:19:41Z</time>
      </trkpt>
      <trkpt lat="45.30935" lon="5.7547">
        <ele>1540.68</ele>
        <time>2018-01-13T14:19:43Z</time>
      </trkpt>
      <trkpt lat="45.30925" lon="5.75479">
        <ele>1539.28</ele>
        <time>2018-01-13T14:19:46Z</time>
      </trkpt>
      <trkpt lat="45.30916" lon="5.75484">
        <ele>1538.28</ele>
        <time>2018-01-13T14:19:49Z</time>
      </trkpt>
      <trkpt lat="45.30907" lon="5.75491">
        <ele>1536.68</ele>
        <time>2018-01-13T14:19:51Z</time>
      </trkpt>
      <trkpt lat="45.3089" lon="5.75509">
        <ele>1531.88</ele>
        <time>2018-01-13T14:19:54Z</time>
      </trkpt>
      <trkpt lat="45.30878" lon="5.7552">
        <ele>1528.88</ele>
        <time>2018-01-13T14:19:56Z</time>
      </trkpt>
      <trkpt lat="45.30868" lon="5.75522">
        <ele>1525.18</ele>
        <time>2018-01-13T14:19:59Z</time>
      </trkpt>
      <trkpt lat="45.30857" lon="5.75525">
        <ele>1522.28</ele>
        <time>2018-01-13T14:20:02Z</time>
      </trkpt>
      <trkpt lat="45.30849" lon="5.75517">
        <ele>1513.38</ele>
        <time>2018-01-13T14:20:10Z</time>
      </trkpt>
      <trkpt lat="45.30843" lon="5.75507">
        <ele>1508.48</ele>
        <time>2018-01-13T14:20:17Z</time>
      </trkpt>
      <trkpt lat="45.30836" lon="5.75498">
        <ele>1499.88</ele>
        <time>2018-01-13T14:20:27Z</time>
      </trkpt>
      <trkpt lat="45.30826" lon="5.75495">
        <ele>1493.28</ele>
        <time>2018-01-13T14:20:33Z</time>
      </trkpt>
      <trkpt lat="45.30818" lon="5.75489">
        <ele>1491.58</ele>
        <time>2018-01-13T14:20:39Z</time>
      </trkpt>
      <trkpt lat="45.30808" lon="5.75483">
        <ele>1490.18</ele>
        <time>2018-01-13T14:20:46Z</time>
      </trkpt>
      <trkpt lat="45.30798" lon="5.75482">
        <ele>1486.08</ele>
        <time>2018-01-13T14:20:54Z</time>
      </trkpt>
      <trkpt lat="45.30788" lon="5.75482">
        <ele>1486.38</ele>
        <time>2018-01-13T14:20:59Z</time>
      </trkpt>
      <trkpt lat="45.30779" lon="5.75477">
        <ele>1491.28</ele>
        <time>2018-01-13T14:21:06Z</time>
      </trkpt>
      <trkpt lat="45.30763" lon="5.75484">
        <ele>1491.28</ele>
        <time>2018-01-13T14:21:10Z</time>
      </trkpt>
      <trkpt lat="45.30771" lon="5.75477">
        <ele>1489.58</ele>
        <time>2018-01-13T14:21:14Z</time>
      </trkpt>
      <trkpt lat="45.30764" lon="5.75468">
        <ele>1488.28</ele>
        <time>2018-01-13T14:21:26Z</time>
      </trkpt>
      <trkpt lat="45.30755" lon="5.7546">
        <ele>1489.38</ele>
        <time>2018-01-13T14:21:34Z</time>
      </trkpt>
      <trkpt lat="45.30748" lon="5.75452">
        <ele>1490.88</ele>
        <time>2018-01-13T14:21:41Z</time>
      </trkpt>
      <trkpt lat="45.30738" lon="5.75447">
        <ele>1496.18</ele>
        <time>2018-01-13T14:21:52Z</time>
      </trkpt>
      <trkpt lat="45.30736" lon="5.75434">
        <ele>1497.68</ele>
        <time>2018-01-13T14:22:01Z</time>
      </trkpt>
      <trkpt lat="45.30726" lon="5.75433">
        <ele>1497.38</ele>
        <time>2018-01-13T14:22:07Z</time>
      </trkpt>
      <trkpt lat="45.30716" lon="5.7543">
        <ele>1495.08</ele>
        <time>2018-01-13T14:22:13Z</time>
      </trkpt>
      <trkpt lat="45.3071" lon="5.7542">
        <ele>1493.88</ele>
        <time>2018-01-13T14:22:20Z</time>
      </trkpt>
      <trkpt lat="45.30701" lon="5.7541">
        <ele>1492.28</ele>
        <time>2018-01-13T14:22:30Z</time>
      </trkpt>
      <trkpt lat="45.30695" lon="5.75401">
        <ele>1488.08</ele>
        <time>2018-01-13T14:22:36Z</time>
      </trkpt>
      <trkpt lat="45.30686" lon="5.75394">
        <ele>1483.98</ele>
        <time>2018-01-13T14:22:45Z</time>
      </trkpt>
      <trkpt lat="45.3068" lon="5.75383">
        <ele>1481.38</ele>
        <time>2018-01-13T14:22:52Z</time>
      </trkpt>
      <trkpt lat="45.30675" lon="5.75371">
        <ele>1476.08</ele>
        <time>2018-01-13T14:23:01Z</time>
      </trkpt>
      <trkpt lat="45.30666" lon="5.75363">
        <ele>1473.18</ele>
        <time>2018-01-13T14:23:06Z</time>
      </trkpt>
      <trkpt lat="45.30657" lon="5.75358">
        <ele>1470.78</ele>
        <time>2018-01-13T14:23:11Z</time>
      </trkpt>
      <trkpt lat="45.30648" lon="5.75355">
        <ele>1469.08</ele>
        <time>2018-01-13T14:23:18Z</time>
      </trkpt>
      <trkpt lat="45.30639" lon="5.75351">
        <ele>1467.08</ele>
        <time>2018-01-13T14:23:25Z</time>
      </trkpt>
      <trkpt lat="45.30628" lon="5.7535">
        <ele>1463.28</ele>
        <time>2018-01-13T14:23:32Z</time>
      </trkpt>
      <trkpt lat="45.30619" lon="5.75347">
        <ele>1461.48</ele>
        <time>2018-01-13T14:23:37Z</time>
      </trkpt>
      <trkpt lat="45.30612" lon="5.75337">
        <ele>1461.18</ele>
        <time>2018-01-13T14:23:44Z</time>
      </trkpt>
      <trkpt lat="45.30601" lon="5.75337">
        <ele>1461.48</ele>
        <time>2018-01-13T14:23:49Z</time>
      </trkpt>
      <trkpt lat="45.30594" lon="5.75326">
        <ele>1461.88</ele>
        <time>2018-01-13T14:23:59Z</time>
      </trkpt>
      <trkpt lat="45.30584" lon="5.75324">
        <ele>1462.28</ele>
        <time>2018-01-13T14:24:05Z</time>
      </trkpt>
      <trkpt lat="45.30574" lon="5.75324">
        <ele>1462.78</ele>
        <time>2018-01-13T14:24:10Z</time>
      </trkpt>
      <trkpt lat="45.30568" lon="5.75312">
        <ele>1460.88</ele>
        <time>2018-01-13T14:24:18Z</time>
      </trkpt>
      <trkpt lat="45.30559" lon="5.75306">
        <ele>1457.78</ele>
        <time>2018-01-13T14:24:24Z</time>
      </trkpt>
      <trkpt lat="45.3055" lon="5.75303">
        <ele>1456.08</ele>
        <time>2018-01-13T14:24:31Z</time>
      </trkpt>
      <trkpt lat="45.30541" lon="5.75298">
        <ele>1458.48</ele>
        <time>2018-01-13T14:24:41Z</time>
      </trkpt>
      <trkpt lat="45.30532" lon="5.75295">
        <ele>1463.58</ele>
        <time>2018-01-13T14:24:47Z</time>
      </trkpt>
      <trkpt lat="45.30525" lon="5.75306">
        <ele>1465.18</ele>
        <time>2018-01-13T14:24:49Z</time>
      </trkpt>
      <trkpt lat="45.30519" lon="5.75315">
        <ele>1465.78</ele>
        <time>2018-01-13T14:24:51Z</time>
      </trkpt>
      <trkpt lat="45.30524" lon="5.75294">
        <ele>1467.28</ele>
        <time>2018-01-13T14:24:55Z</time>
      </trkpt>
      <trkpt lat="45.30524" lon="5.75281">
        <ele>1465.08</ele>
        <time>2018-01-13T14:24:59Z</time>
      </trkpt>
      <trkpt lat="45.30516" lon="5.75274">
        <ele>1461.28</ele>
        <time>2018-01-13T14:25:06Z</time>
      </trkpt>
      <trkpt lat="45.30507" lon="5.75272">
        <ele>1459.08</ele>
        <time>2018-01-13T14:25:13Z</time>
      </trkpt>
      <trkpt lat="45.30498" lon="5.7527">
        <ele>1457.68</ele>
        <time>2018-01-13T14:25:20Z</time>
      </trkpt>
      <trkpt lat="45.30489" lon="5.75273">
        <ele>1456.68</ele>
        <time>2018-01-13T14:25:29Z</time>
      </trkpt>
      <trkpt lat="45.30479" lon="5.75269">
        <ele>1454.28</ele>
        <time>2018-01-13T14:25:35Z</time>
      </trkpt>
      <trkpt lat="45.30472" lon="5.75277">
        <ele>1452.38</ele>
        <time>2018-01-13T14:25:40Z</time>
      </trkpt>
      <trkpt lat="45.30463" lon="5.75278">
        <ele>1450.48</ele>
        <time>2018-01-13T14:25:45Z</time>
      </trkpt>
      <trkpt lat="45.30453" lon="5.75278">
        <ele>1448.68</ele>
        <time>2018-01-13T14:25:51Z</time>
      </trkpt>
      <trkpt lat="45.30444" lon="5.75278">
        <ele>1447.48</ele>
        <time>2018-01-13T14:25:56Z</time>
      </trkpt>
      <trkpt lat="45.30434" lon="5.75279">
        <ele>1445.88</ele>
        <time>2018-01-13T14:26:05Z</time>
      </trkpt>
      <trkpt lat="45.30425" lon="5.75272">
        <ele>1442.48</ele>
        <time>2018-01-13T14:26:27Z</time>
      </trkpt>
      <trkpt lat="45.30409" lon="5.75274">
        <ele>1443.98</ele>
        <time>2018-01-13T14:26:31Z</time>
      </trkpt>
      <trkpt lat="45.304" lon="5.7528">
        <ele>1446.48</ele>
        <time>2018-01-13T14:26:35Z</time>
      </trkpt>
      <trkpt lat="45.30395" lon="5.75292">
        <ele>1448.38</ele>
        <time>2018-01-13T14:26:38Z</time>
      </trkpt>
      <trkpt lat="45.30386" lon="5.75299">
        <ele>1447.88</ele>
        <time>2018-01-13T14:26:47Z</time>
      </trkpt>
      <trkpt lat="45.30387" lon="5.75315">
        <ele>1447.18</ele>
        <time>2018-01-13T14:26:51Z</time>
      </trkpt>
      <trkpt lat="45.30387" lon="5.7533">
        <ele>1447.98</ele>
        <time>2018-01-13T14:26:56Z</time>
      </trkpt>
      <trkpt lat="45.30389" lon="5.75343">
        <ele>1444.08</ele>
        <time>2018-01-13T14:27:04Z</time>
      </trkpt>
      <trkpt lat="45.30398" lon="5.75341">
        <ele>1436.98</ele>
        <time>2018-01-13T14:27:17Z</time>
      </trkpt>
      <trkpt lat="45.30404" lon="5.75331">
        <ele>1438.78</ele>
        <time>2018-01-13T14:27:35Z</time>
      </trkpt>
    </trkseg>
  </trk>
</gpx>